Observation data for Palo Duro Canyon State Park Rim on 05/24/2020      Previous  Date  Next       Current Mesonet Observations  Soil Data  Daily Summary Page  Observations in Plain Language
KPD1 240500Z 15010KT 20/10 A2984 RMK A01 T01980096  RH  052%=      5-min Rain = 0
KPD1 240501Z 16011KT 20/10 A2984 RMK A01 T01970095  RH  052%=      5-min Rain = 0
KPD1 240502Z 15013KT 20/10 A2984 RMK A01 T01970095  RH  052%=      5-min Rain = 0
KPD1 240503Z 15012KT 20/10 A2984 RMK A01 T01980096  RH  052%=      5-min Rain = 0
KPD1 240504Z 15009KT 20/10 A2984 RMK A01 T01970095  RH  052%=      5-min Rain = 0
KPD1 240505Z 15011KT 20/10 A2984 RMK A01 T01980095  RH  052%=      5-min Rain = 0
KPD1 240506Z 16011KT 20/10 A2984 RMK A01 T01970095  RH  052%=      5-min Rain = 0
KPD1 240507Z 15010G15KT 20/10 A2984 RMK A01 T01980095  RH  052%=      5-min Rain = 0
KPD1 240508Z 15010KT 20/10 A2984 RMK A01 T01980096  RH  052%=      5-min Rain = 0
KPD1 240509Z 16008KT 20/10 A2984 RMK A01 T01970096  RH  052%=      5-min Rain = 0
KPD1 240510Z 16009KT 20/10 A2984 RMK A01 T01970096  RH  052%=      5-min Rain = 0
KPD1 240511Z 16013KT 20/10 A2984 RMK A01 T01970096  RH  052%=      5-min Rain = 0
KPD1 240512Z 16010KT 20/10 A2984 RMK A01 T01970096  RH  052%=      5-min Rain = 0
KPD1 240513Z 17009KT 20/10 A2984 RMK A01 T01970096  RH  052%=      5-min Rain = 0
KPD1 240514Z 16011KT 20/10 A2984 RMK A01 T01970096  RH  052%=      5-min Rain = 0
KPD1 240515Z 16011G16KT 20/10 A2983 RMK A01 T01960096  RH  052%=      5-min Rain = 0
KPD1 240516Z 15011KT 20/10 A2984 RMK A01 T01970096  RH  052%=      5-min Rain = 0
KPD1 240517Z 15011G16KT 20/10 A2983 RMK A01 T01960096  RH  052%=      5-min Rain = 0
KPD1 240518Z 16012G17KT 20/10 A2983 RMK A01 T01970097  RH  052%=      5-min Rain = 0
KPD1 240519Z 17011G20KT 20/10 A2984 RMK A01 T01960096  RH  052%=      5-min Rain = 0
KPD1 240520Z 15011G16KT 20/10 A2983 RMK A01 T01970096  RH  052%=      5-min Rain = 0
KPD1 240521Z 16011KT 20/10 A2984 RMK A01 T01960096  RH  052%=      5-min Rain = 0
KPD1 240522Z 15010G15KT 20/10 A2984 RMK A01 T01970096  RH  052%=      5-min Rain = 0
KPD1 240523Z 15010KT 20/10 A2984 RMK A01 T01960096  RH  052%=      5-min Rain = 0
KPD1 240524Z 15014KT 20/10 A2984 RMK A01 T01960096  RH  052%=      5-min Rain = 0
KPD1 240525Z 16011KT 20/10 A2984 RMK A01 T01960097  RH  052%=      5-min Rain = 0
KPD1 240526Z 16013KT 20/10 A2984 RMK A01 T01970097  RH  053%=      5-min Rain = 0
KPD1 240527Z 15012KT 20/10 A2984 RMK A01 T01960097  RH  053%=      5-min Rain = 0
KPD1 240528Z 16012KT 20/10 A2984 RMK A01 T01960097  RH  053%=      5-min Rain = 0
KPD1 240529Z 16010KT 20/10 A2984 RMK A01 T01960098  RH  053%=      5-min Rain = 0
KPD1 240530Z 16010G15KT 20/10 A2984 RMK A01 T01950097  RH  053%=      5-min Rain = 0
KPD1 240531Z 16009KT 20/10 A2983 RMK A01 T01950098  RH  053%=      5-min Rain = 0
KPD1 240532Z 17010KT 20/10 A2984 RMK A01 T01950097  RH  053%=      5-min Rain = 0
KPD1 240533Z 16011KT 20/10 A2984 RMK A01 T01950097  RH  053%=      5-min Rain = 0
KPD1 240534Z 17010KT 20/10 A2984 RMK A01 T01950097  RH  053%=      5-min Rain = 0
KPD1 240535Z 16011KT 20/10 A2984 RMK A01 T01950098  RH  053%=      5-min Rain = 0
KPD1 240536Z 16012KT 19/10 A2984 RMK A01 T01940097  RH  053%=      5-min Rain = 0
KPD1 240537Z 16009KT 19/10 A2984 RMK A01 T01940097  RH  054%=      5-min Rain = 0
KPD1 240538Z 16010G15KT 19/10 A2984 RMK A01 T01940098  RH  054%=      5-min Rain = 0
KPD1 240539Z 16011G16KT 19/10 A2984 RMK A01 T01940098  RH  054%=      5-min Rain = 0
KPD1 240540Z 17012G17KT 19/10 A2984 RMK A01 T01940097  RH  054%=      5-min Rain = 0
KPD1 240541Z 16016G22KT 19/10 A2984 RMK A01 T01940098  RH  054%=      5-min Rain = 0
KPD1 240542Z 17016G21KT 19/10 A2984 RMK A01 T01940097  RH  053%=      5-min Rain = 0
KPD1 240543Z 16012KT 20/10 A2984 RMK A01 T01950097  RH  053%=      5-min Rain = 0
KPD1 240544Z 16010KT 20/10 A2984 RMK A01 T01950098  RH  053%=      5-min Rain = 0
KPD1 240545Z 16010KT 20/10 A2984 RMK A01 T01950098  RH  054%=      5-min Rain = 0
KPD1 240546Z 16016KT 19/10 A2984 RMK A01 T01940098  RH  054%=      5-min Rain = 0
KPD1 240547Z 15012KT 19/10 A2984 RMK A01 T01940098  RH  054%=      5-min Rain = 0
KPD1 240548Z 17015KT 19/10 A2984 RMK A01 T01940098  RH  054%=      5-min Rain = 0
KPD1 240549Z 18012G17KT 19/10 A2984 RMK A01 T01940098  RH  054%=      5-min Rain = 0
KPD1 240550Z 17011KT 19/10 A2984 RMK A01 T01940098  RH  054%=      5-min Rain = 0
KPD1 240551Z 17011G16KT 19/10 A2984 RMK A01 T01940098  RH  054%=      5-min Rain = 0
KPD1 240552Z 17017G22KT 19/10 A2984 RMK A01 T01930098  RH  054%=      5-min Rain = 0
KPD1 240553Z 17011KT 19/10 A2984 RMK A01 T01940098  RH  054%=      5-min Rain = 0
KPD1 240554Z 17011KT 19/10 A2984 RMK A01 T01930098  RH  054%=      5-min Rain = 0
KPD1 240555Z 17010KT 19/10 A2984 RMK A01 T01930098  RH  054%=      5-min Rain = 0
KPD1 240556Z 16010KT 19/10 A2984 RMK A01 T01930099  RH  054%=      5-min Rain = 0
KPD1 240557Z 17009KT 19/10 A2984 RMK A01 T01930098  RH  054%=      5-min Rain = 0
KPD1 240558Z 18009KT 19/10 A2984 RMK A01 T01920098  RH  054%=      5-min Rain = 0
KPD1 240559Z 17010KT 19/10 A2984 RMK A01 T01920098  RH  054%=      5-min Rain = 0
KPD1 240600Z 17011KT 19/10 A2984 RMK A01 T01920098  RH  054%=      5-min Rain = 0
KPD1 240601Z 17009KT 19/10 A2984 RMK A01 T01920099  RH  055%=      5-min Rain = 0
KPD1 240602Z 17010KT 19/10 A2984 RMK A01 T01920098  RH  055%=      5-min Rain = 0
KPD1 240603Z 18009KT 19/10 A2984 RMK A01 T01920098  RH  055%=      5-min Rain = 0
KPD1 240604Z 17010KT 19/10 A2984 RMK A01 T01910098  RH  055%=      5-min Rain = 0
KPD1 240605Z 17010KT 19/10 A2984 RMK A01 T01910099  RH  055%=      5-min Rain = 0
KPD1 240606Z 17010KT 19/10 A2984 RMK A01 T01910098  RH  055%=      5-min Rain = 0
KPD1 240607Z 17009KT 19/10 A2984 RMK A01 T01910098  RH  055%=      5-min Rain = 0
KPD1 240608Z 17007KT 19/10 A2984 RMK A01 T01910099  RH  055%=      5-min Rain = 0
KPD1 240609Z 16008KT 19/10 A2984 RMK A01 T01900099  RH  055%=      5-min Rain = 0
KPD1 240610Z 17008KT 19/10 A2984 RMK A01 T01890099  RH  056%=      5-min Rain = 0
KPD1 240611Z 17007KT 19/10 A2984 RMK A01 T01890099  RH  056%=      5-min Rain = 0
KPD1 240612Z 16007KT 19/10 A2984 RMK A01 T01880099  RH  056%=      5-min Rain = 0
KPD1 240613Z 17008KT 19/10 A2984 RMK A01 T01870100  RH  057%=      5-min Rain = 0
KPD1 240614Z 17009KT 19/10 A2984 RMK A01 T01870099  RH  057%=      5-min Rain = 0
KPD1 240615Z 18008KT 19/10 A2984 RMK A01 T01860099  RH  057%=      5-min Rain = 0
KPD1 240616Z 17009KT 19/10 A2984 RMK A01 T01870100  RH  057%=      5-min Rain = 0
KPD1 240617Z 18009KT 19/10 A2984 RMK A01 T01860099  RH  057%=      5-min Rain = 0
KPD1 240618Z 17007KT 19/10 A2984 RMK A01 T01870100  RH  057%=      5-min Rain = 0
KPD1 240619Z 16010KT 19/10 A2983 RMK A01 T01860100  RH  057%=      5-min Rain = 0
KPD1 240620Z 17007KT 19/10 A2983 RMK A01 T01860100  RH  057%=      5-min Rain = 0
KPD1 240621Z 17009KT 19/10 A2983 RMK A01 T01860099  RH  057%=      5-min Rain = 0
KPD1 240622Z 19010KT 19/10 A2983 RMK A01 T01860099  RH  057%=      5-min Rain = 0
KPD1 240623Z 18009KT 19/10 A2983 RMK A01 T01860100  RH  057%=      5-min Rain = 0
KPD1 240624Z 18007KT 19/10 A2983 RMK A01 T01850099  RH  057%=      5-min Rain = 0
KPD1 240625Z 19008KT 19/10 A2983 RMK A01 T01850099  RH  057%=      5-min Rain = 0
KPD1 240626Z 18009KT 19/10 A2983 RMK A01 T01850099  RH  057%=      5-min Rain = 0
KPD1 240627Z 19008KT 19/10 A2984 RMK A01 T01850099  RH  057%=      5-min Rain = 0
KPD1 240628Z 19008KT 19/10 A2984 RMK A01 T01850099  RH  058%=      5-min Rain = 0
KPD1 240629Z 18008KT 18/10 A2984 RMK A01 T01840100  RH  058%=      5-min Rain = 0
KPD1 240630Z 18009KT 18/10 A2984 RMK A01 T01840100  RH  058%=      5-min Rain = 0
KPD1 240631Z 17010KT 18/10 A2983 RMK A01 T01830100  RH  058%=      5-min Rain = 0
KPD1 240632Z 18011KT 18/10 A2983 RMK A01 T01840100  RH  058%=      5-min Rain = 0
KPD1 240633Z 18011KT 18/10 A2983 RMK A01 T01840100  RH  058%=      5-min Rain = 0
KPD1 240634Z 18010KT 19/10 A2983 RMK A01 T01850101  RH  058%=      5-min Rain = 0
KPD1 240635Z 18011G16KT 19/10 A2983 RMK A01 T01850101  RH  058%=      5-min Rain = 0
KPD1 240636Z 18012KT 19/10 A2983 RMK A01 T01850102  RH  058%=      5-min Rain = 0
KPD1 240637Z 18013KT 18/10 A2984 RMK A01 T01840102  RH  059%=      5-min Rain = 0
KPD1 240638Z 17013KT 18/10 A2984 RMK A01 T01840102  RH  059%=      5-min Rain = 0
KPD1 240639Z 17012KT 18/10 A2984 RMK A01 T01840102  RH  059%=      5-min Rain = 0
KPD1 240640Z 17009KT 18/10 A2983 RMK A01 T01840102  RH  059%=      5-min Rain = 0
KPD1 240641Z 18011KT 18/10 A2984 RMK A01 T01840102  RH  059%=      5-min Rain = 0
KPD1 240642Z 18012KT 18/10 A2984 RMK A01 T01830102  RH  059%=      5-min Rain = 0
KPD1 240643Z 17012KT 18/10 A2984 RMK A01 T01830102  RH  059%=      5-min Rain = 0
KPD1 240644Z 17011KT 18/10 A2984 RMK A01 T01830101  RH  059%=      5-min Rain = 0
KPD1 240645Z 18010G15KT 18/10 A2984 RMK A01 T01830101  RH  059%=      5-min Rain = 0
KPD1 240646Z 18009KT 18/10 A2984 RMK A01 T01830102  RH  059%=      5-min Rain = 0
KPD1 240647Z 18011KT 18/10 A2984 RMK A01 T01830102  RH  059%=      5-min Rain = 0
KPD1 240648Z 17011KT 18/10 A2984 RMK A01 T01820101  RH  059%=      5-min Rain = 0
KPD1 240649Z 17011KT 18/10 A2984 RMK A01 T01830102  RH  059%=      5-min Rain = 0
KPD1 240650Z 17011KT 18/10 A2984 RMK A01 T01830102  RH  059%=      5-min Rain = 0
KPD1 240651Z 16014KT 18/10 A2984 RMK A01 T01820102  RH  059%=      5-min Rain = 0
KPD1 240652Z 17010KT 18/10 A2984 RMK A01 T01820101  RH  059%=      5-min Rain = 0
KPD1 240653Z 17013KT 18/10 A2984 RMK A01 T01820101  RH  059%=      5-min Rain = 0
KPD1 240654Z 16013KT 18/10 A2984 RMK A01 T01820102  RH  059%=      5-min Rain = 0
KPD1 240655Z 17013KT 18/10 A2984 RMK A01 T01820101  RH  059%=      5-min Rain = 0
KPD1 240656Z 17009KT 18/10 A2984 RMK A01 T01820101  RH  059%=      5-min Rain = 0
KPD1 240657Z 16011KT 18/10 A2984 RMK A01 T01820101  RH  059%=      5-min Rain = 0
KPD1 240658Z 16009KT 18/10 A2984 RMK A01 T01820101  RH  059%=      5-min Rain = 0
KPD1 240659Z 17009KT 18/10 A2984 RMK A01 T01820101  RH  059%=      5-min Rain = 0
KPD1 240700Z 17012KT 18/10 A2985 RMK A01 T01810101  RH  060%=      5-min Rain = 0
KPD1 240701Z 17011KT 18/10 A2985 RMK A01 T01810101  RH  060%=      5-min Rain = 0
KPD1 240702Z 17011KT 18/10 A2985 RMK A01 T01810101  RH  059%=      5-min Rain = 0
KPD1 240703Z 16010KT 18/10 A2985 RMK A01 T01810101  RH  059%=      5-min Rain = 0
KPD1 240704Z 16008KT 18/10 A2985 RMK A01 T01810101  RH  059%=      5-min Rain = 0
KPD1 240705Z 16009KT 18/10 A2985 RMK A01 T01810101  RH  059%=      5-min Rain = 0
KPD1 240706Z 16010KT 18/10 A2985 RMK A01 T01810101  RH  059%=      5-min Rain = 0
KPD1 240707Z 16010KT 18/10 A2985 RMK A01 T01810101  RH  060%=      5-min Rain = 0
KPD1 240708Z 15011KT 18/10 A2985 RMK A01 T01810101  RH  060%=      5-min Rain = 0
KPD1 240709Z 16010KT 18/10 A2985 RMK A01 T01800101  RH  060%=      5-min Rain = 0
KPD1 240710Z 15011KT 18/10 A2985 RMK A01 T01800101  RH  060%=      5-min Rain = 0
KPD1 240711Z 16012KT 18/10 A2985 RMK A01 T01810102  RH  060%=      5-min Rain = 0
KPD1 240712Z 16011KT 18/10 A2985 RMK A01 T01810101  RH  060%=      5-min Rain = 0
KPD1 240713Z 16009KT 18/10 A2985 RMK A01 T01810101  RH  060%=      5-min Rain = 0
KPD1 240714Z 16011KT 18/10 A2985 RMK A01 T01800101  RH  060%=      5-min Rain = 0
KPD1 240715Z 16012KT 18/10 A2985 RMK A01 T01810102  RH  060%=      5-min Rain = 0
KPD1 240716Z 16010KT 18/10 A2986 RMK A01 T01810101  RH  060%=      5-min Rain = 0
KPD1 240717Z 16010G15KT 18/10 A2986 RMK A01 T01810102  RH  060%=      5-min Rain = 0
KPD1 240718Z 16010KT 18/10 A2986 RMK A01 T01810102  RH  060%=      5-min Rain = 0
KPD1 240719Z 16011KT 18/10 A2986 RMK A01 T01800101  RH  060%=      5-min Rain = 0
KPD1 240720Z 16014KT 18/10 A2986 RMK A01 T01800101  RH  060%=      5-min Rain = 0
KPD1 240721Z 16010G15KT 18/10 A2986 RMK A01 T01800101  RH  060%=      5-min Rain = 0
KPD1 240722Z 16011KT 18/10 A2986 RMK A01 T01800101  RH  060%=      5-min Rain = 0
KPD1 240723Z 17011KT 18/10 A2986 RMK A01 T01800100  RH  060%=      5-min Rain = 0
KPD1 240724Z 17010G15KT 18/10 A2986 RMK A01 T01810101  RH  060%=      5-min Rain = 0
KPD1 240725Z 16011G16KT 18/10 A2986 RMK A01 T01810101  RH  060%=      5-min Rain = 0
KPD1 240726Z 17013KT 18/10 A2986 RMK A01 T01810101  RH  060%=      5-min Rain = 0
KPD1 240727Z 17010G15KT 18/10 A2986 RMK A01 T01810101  RH  059%=      5-min Rain = 0
KPD1 240728Z 16012KT 18/10 A2986 RMK A01 T01810100  RH  059%=      5-min Rain = 0
KPD1 240729Z 17010G15KT 18/10 A2986 RMK A01 T01810100  RH  059%=      5-min Rain = 0
KPD1 240730Z 17012KT 18/10 A2986 RMK A01 T01810100  RH  059%=      5-min Rain = 0
KPD1 240731Z 17014KT 18/10 A2986 RMK A01 T01810100  RH  059%=      5-min Rain = 0
KPD1 240732Z 17015KT 18/10 A2986 RMK A01 T01810100  RH  059%=      5-min Rain = 0
KPD1 240733Z 17012G17KT 18/10 A2986 RMK A01 T01810100  RH  059%=      5-min Rain = 0
KPD1 240734Z 16010G15KT 18/10 A2986 RMK A01 T01810100  RH  059%=      5-min Rain = 0
KPD1 240735Z 17012G17KT 18/10 A2986 RMK A01 T01810100  RH  059%=      5-min Rain = 0
KPD1 240736Z 17011G17KT 18/10 A2986 RMK A01 T01810100  RH  059%=      5-min Rain = 0
KPD1 240737Z 17012KT 18/10 A2986 RMK A01 T01810100  RH  059%=      5-min Rain = 0
KPD1 240738Z 17010KT 18/10 A2986 RMK A01 T01810099  RH  059%=      5-min Rain = 0
KPD1 240739Z 17011KT 18/10 A2986 RMK A01 T01810099  RH  059%=      5-min Rain = 0
KPD1 240740Z 17013KT 18/10 A2986 RMK A01 T01800099  RH  059%=      5-min Rain = 0
KPD1 240741Z 17011KT 18/10 A2986 RMK A01 T01810099  RH  059%=      5-min Rain = 0
KPD1 240742Z 17010G15KT 18/10 A2986 RMK A01 T01810099  RH  059%=      5-min Rain = 0
KPD1 240743Z 17012KT 18/10 A2986 RMK A01 T01810099  RH  059%=      5-min Rain = 0
KPD1 240744Z 17011KT 18/10 A2986 RMK A01 T01810099  RH  059%=      5-min Rain = 0
KPD1 240745Z 16010KT 18/10 A2986 RMK A01 T01810099  RH  059%=      5-min Rain = 0
KPD1 240746Z 17010KT 18/10 A2986 RMK A01 T01800099  RH  059%=      5-min Rain = 0
KPD1 240747Z 17012KT 18/10 A2985 RMK A01 T01800098  RH  059%=      5-min Rain = 0
KPD1 240748Z 16009KT 18/10 A2986 RMK A01 T01800097  RH  059%=      5-min Rain = 0
KPD1 240749Z 16009KT 18/10 A2986 RMK A01 T01800098  RH  059%=      5-min Rain = 0
KPD1 240750Z 16008KT 18/10 A2986 RMK A01 T01800099  RH  059%=      5-min Rain = 0
KPD1 240751Z 17009G15KT 18/10 A2986 RMK A01 T01790098  RH  059%=      5-min Rain = 0
KPD1 240752Z 16012KT 18/10 A2985 RMK A01 T01790098  RH  059%=      5-min Rain = 0
KPD1 240753Z 17011KT 18/10 A2985 RMK A01 T01790097  RH  059%=      5-min Rain = 0
KPD1 240754Z 17008KT 18/10 A2985 RMK A01 T01800097  RH  058%=      5-min Rain = 0
KPD1 240755Z 17009KT 18/10 A2985 RMK A01 T01800097  RH  059%=      5-min Rain = 0
KPD1 240756Z 17011KT 18/10 A2986 RMK A01 T01800098  RH  059%=      5-min Rain = 0
KPD1 240757Z 17011KT 18/10 A2986 RMK A01 T01790097  RH  059%=      5-min Rain = 0
KPD1 240758Z 17010KT 18/10 A2985 RMK A01 T01790097  RH  059%=      5-min Rain = 0
KPD1 240759Z 16010G17KT 18/10 A2985 RMK A01 T01790097  RH  058%=      5-min Rain = 0
KPD1 240800Z 16013KT 18/10 A2986 RMK A01 T01800096  RH  058%=      5-min Rain = 0
KPD1 240801Z 17014KT 18/10 A2986 RMK A01 T01800096  RH  058%=      5-min Rain = 0
KPD1 240802Z 16010KT 18/10 A2986 RMK A01 T01810096  RH  057%=      5-min Rain = 0
KPD1 240803Z 16010KT 18/10 A2986 RMK A01 T01810096  RH  057%=      5-min Rain = 0
KPD1 240804Z 15009KT 18/10 A2986 RMK A01 T01810097  RH  058%=      5-min Rain = 0
KPD1 240805Z 15010KT 18/10 A2986 RMK A01 T01800098  RH  058%=      5-min Rain = 0
KPD1 240806Z 16010KT 18/10 A2986 RMK A01 T01790098  RH  059%=      5-min Rain = 0
KPD1 240807Z 16011KT 18/10 A2986 RMK A01 T01790098  RH  059%=      5-min Rain = 0
KPD1 240808Z 17010KT 18/10 A2986 RMK A01 T01790098  RH  059%=      5-min Rain = 0
KPD1 240809Z 16010KT 18/10 A2986 RMK A01 T01780098  RH  059%=      5-min Rain = 0
KPD1 240810Z 16010KT 18/10 A2986 RMK A01 T01780098  RH  059%=      5-min Rain = 0
KPD1 240811Z 16009KT 18/10 A2986 RMK A01 T01780099  RH  060%=      5-min Rain = 0
KPD1 240812Z 17009KT 18/10 A2986 RMK A01 T01780099  RH  060%=      5-min Rain = 0
KPD1 240813Z 16008KT 18/10 A2986 RMK A01 T01770099  RH  060%=      5-min Rain = 0
KPD1 240814Z 16010KT 18/10 A2986 RMK A01 T01770099  RH  060%=      5-min Rain = 0
KPD1 240815Z 16010KT 18/10 A2986 RMK A01 T01770099  RH  060%=      5-min Rain = 0
KPD1 240816Z 16010KT 18/10 A2986 RMK A01 T01770099  RH  060%=      5-min Rain = 0
KPD1 240817Z 16010KT 18/10 A2986 RMK A01 T01770099  RH  060%=      5-min Rain = 0
KPD1 240818Z 15008KT 18/10 A2986 RMK A01 T01760099  RH  060%=      5-min Rain = 0
KPD1 240819Z 16010KT 18/10 A2986 RMK A01 T01760099  RH  061%=      5-min Rain = 0
KPD1 240820Z 16011KT 18/10 A2986 RMK A01 T01760099  RH  061%=      5-min Rain = 0
KPD1 240821Z 16012KT 18/10 A2986 RMK A01 T01750099  RH  061%=      5-min Rain = 0
KPD1 240822Z 16013KT 18/10 A2986 RMK A01 T01760099  RH  061%=      5-min Rain = 0
KPD1 240823Z 16012KT 18/10 A2986 RMK A01 T01760099  RH  061%=      5-min Rain = 0
KPD1 240824Z 16010KT 18/10 A2986 RMK A01 T01750099  RH  061%=      5-min Rain = 0
KPD1 240825Z 16011KT 18/10 A2986 RMK A01 T01760100  RH  061%=      5-min Rain = 0
KPD1 240826Z 16012KT 18/10 A2986 RMK A01 T01750100  RH  061%=      5-min Rain = 0
KPD1 240827Z 16009KT 18/10 A2986 RMK A01 T01750100  RH  061%=      5-min Rain = 0
KPD1 240828Z 16013KT 18/10 A2986 RMK A01 T01750100  RH  061%=      5-min Rain = 0
KPD1 240829Z 16010G15KT 18/10 A2986 RMK A01 T01750100  RH  061%=      5-min Rain = 0
KPD1 240830Z 16009KT 18/10 A2986 RMK A01 T01750100  RH  061%=      5-min Rain = 0
KPD1 240831Z 17011KT 17/10 A2986 RMK A01 T01740100  RH  062%=      5-min Rain = 0
KPD1 240832Z 18012G17KT 17/10 A2986 RMK A01 T01740099  RH  062%=      5-min Rain = 0
KPD1 240833Z 16011KT 17/10 A2986 RMK A01 T01740099  RH  062%=      5-min Rain = 0
KPD1 240834Z 17010KT 17/10 A2986 RMK A01 T01740099  RH  061%=      5-min Rain = 0
KPD1 240835Z 17010KT 17/10 A2986 RMK A01 T01740100  RH  061%=      5-min Rain = 0
KPD1 240836Z 17009KT 17/10 A2986 RMK A01 T01740099  RH  061%=      5-min Rain = 0
KPD1 240837Z 17010KT 17/10 A2986 RMK A01 T01740099  RH  061%=      5-min Rain = 0
KPD1 240838Z 17013KT 17/10 A2986 RMK A01 T01740099  RH  061%=      5-min Rain = 0
KPD1 240839Z 17013KT 17/10 A2986 RMK A01 T01740098  RH  061%=      5-min Rain = 0
KPD1 240840Z 17011KT 18/10 A2986 RMK A01 T01750098  RH  061%=      5-min Rain = 0
KPD1 240841Z 17012G17KT 18/10 A2986 RMK A01 T01750099  RH  061%=      5-min Rain = 0
KPD1 240842Z 17010KT 18/10 A2986 RMK A01 T01750099  RH  061%=      5-min Rain = 0
KPD1 240843Z 17013KT 18/10 A2986 RMK A01 T01750099  RH  061%=      5-min Rain = 0
KPD1 240844Z 16012KT 18/10 A2986 RMK A01 T01750099  RH  061%=      5-min Rain = 0
KPD1 240845Z 17009KT 18/10 A2986 RMK A01 T01750099  RH  061%=      5-min Rain = 0
KPD1 240846Z 17012KT 18/10 A2986 RMK A01 T01750100  RH  061%=      5-min Rain = 0
KPD1 240847Z 17013KT 17/10 A2986 RMK A01 T01740100  RH  061%=      5-min Rain = 0
KPD1 240848Z 18012KT 17/10 A2986 RMK A01 T01740100  RH  062%=      5-min Rain = 0
KPD1 240849Z 17010KT 17/10 A2986 RMK A01 T01740100  RH  062%=      5-min Rain = 0
KPD1 240850Z 17010KT 17/10 A2986 RMK A01 T01740100  RH  061%=      5-min Rain = 0
KPD1 240851Z 17010G15KT 17/10 A2986 RMK A01 T01740100  RH  062%=      5-min Rain = 0
KPD1 240852Z 17013G20KT 17/10 A2986 RMK A01 T01740100  RH  062%=      5-min Rain = 0
KPD1 240853Z 17012KT 17/10 A2986 RMK A01 T01740099  RH  062%=      5-min Rain = 0
KPD1 240854Z 17012KT 17/10 A2986 RMK A01 T01740100  RH  062%=      5-min Rain = 0
KPD1 240855Z 17012KT 17/10 A2986 RMK A01 T01740100  RH  062%=      5-min Rain = 0
KPD1 240856Z 17015KT 17/10 A2986 RMK A01 T01740100  RH  062%=      5-min Rain = 0
KPD1 240857Z 18010KT 17/10 A2986 RMK A01 T01740100  RH  062%=      5-min Rain = 0
KPD1 240858Z 18013G19KT 17/10 A2986 RMK A01 T01740100  RH  062%=      5-min Rain = 0
KPD1 240859Z 16013KT 17/10 A2986 RMK A01 T01740100  RH  062%=      5-min Rain = 0
KPD1 240900Z 17010KT 17/10 A2986 RMK A01 T01740101  RH  062%=      5-min Rain = 0
KPD1 240901Z 17011KT 17/10 A2986 RMK A01 T01740101  RH  062%=      5-min Rain = 0
KPD1 240902Z 16012G17KT 17/10 A2986 RMK A01 T01740101  RH  062%=      5-min Rain = 0
KPD1 240903Z 17012G18KT 17/10 A2986 RMK A01 T01740100  RH  062%=      5-min Rain = 0
KPD1 240904Z 17011KT 17/10 A2986 RMK A01 T01740101  RH  062%=      5-min Rain = 0
KPD1 240905Z 17012G17KT 17/10 A2986 RMK A01 T01740101  RH  062%=      5-min Rain = 0
KPD1 240906Z 17012KT 17/10 A2986 RMK A01 T01740101  RH  062%=      5-min Rain = 0
KPD1 240907Z 17012KT 17/10 A2986 RMK A01 T01740101  RH  062%=      5-min Rain = 0
KPD1 240908Z 17015KT 17/10 A2986 RMK A01 T01740102  RH  062%=      5-min Rain = 0
KPD1 240909Z 17013KT 17/10 A2986 RMK A01 T01740102  RH  063%=      5-min Rain = 0
KPD1 240910Z 17012KT 17/10 A2986 RMK A01 T01740102  RH  063%=      5-min Rain = 0
KPD1 240911Z 16012KT 17/10 A2986 RMK A01 T01740102  RH  063%=      5-min Rain = 0
KPD1 240912Z 17012G18KT 17/10 A2986 RMK A01 T01740102  RH  063%=      5-min Rain = 0
KPD1 240913Z 17015KT 17/10 A2986 RMK A01 T01740102  RH  063%=      5-min Rain = 0
KPD1 240914Z 17009KT 17/10 A2986 RMK A01 T01740103  RH  063%=      5-min Rain = 0
KPD1 240915Z 16010KT 17/10 A2986 RMK A01 T01730102  RH  063%=      5-min Rain = 0
KPD1 240916Z 17008KT 17/10 A2986 RMK A01 T01730103  RH  063%=      5-min Rain = 0
KPD1 240917Z 17009G15KT 17/10 A2986 RMK A01 T01720102  RH  063%=      5-min Rain = 0
KPD1 240918Z 17012KT 17/10 A2986 RMK A01 T01710102  RH  064%=      5-min Rain = 0
KPD1 240919Z 17011G16KT 17/10 A2986 RMK A01 T01710102  RH  064%=      5-min Rain = 0
KPD1 240920Z 17011KT 17/10 A2986 RMK A01 T01710102  RH  064%=      5-min Rain = 0
KPD1 240921Z 17010KT 17/10 A2986 RMK A01 T01720102  RH  064%=      5-min Rain = 0
KPD1 240922Z 18009KT 17/10 A2986 RMK A01 T01720102  RH  064%=      5-min Rain = 0
KPD1 240923Z 18010KT 17/10 A2986 RMK A01 T01710103  RH  064%=      5-min Rain = 0
KPD1 240924Z 17011KT 17/10 A2986 RMK A01 T01710103  RH  064%=      5-min Rain = 0
KPD1 240925Z 17009KT 17/10 A2986 RMK A01 T01710103  RH  064%=      5-min Rain = 0
KPD1 240926Z 17007KT 17/10 A2986 RMK A01 T01700103  RH  065%=      5-min Rain = 0
KPD1 240927Z 17009G14KT 17/10 A2986 RMK A01 T01700103  RH  065%=      5-min Rain = 0
KPD1 240928Z 18008KT 17/10 A2986 RMK A01 T01700103  RH  065%=      5-min Rain = 0
KPD1 240929Z 18010G16KT 17/10 A2986 RMK A01 T01690103  RH  065%=      5-min Rain = 0
KPD1 240930Z 18013KT 17/10 A2986 RMK A01 T01690104  RH  065%=      5-min Rain = 0
KPD1 240931Z 17010KT 17/10 A2986 RMK A01 T01690104  RH  066%=      5-min Rain = 0
KPD1 240932Z 17011KT 17/10 A2986 RMK A01 T01690104  RH  066%=      5-min Rain = 0
KPD1 240933Z 16010KT 17/10 A2986 RMK A01 T01690104  RH  066%=      5-min Rain = 0
KPD1 240934Z 17008G13KT 17/10 A2986 RMK A01 T01690104  RH  065%=      5-min Rain = 0
KPD1 240935Z 17013KT 17/10 A2986 RMK A01 T01690104  RH  065%=      5-min Rain = 0
KPD1 240936Z 18010KT 17/10 A2986 RMK A01 T01690104  RH  066%=      5-min Rain = 0
KPD1 240937Z 17008KT 17/11 A2986 RMK A01 T01690105  RH  066%=      5-min Rain = 0
KPD1 240938Z 17008KT 17/11 A2986 RMK A01 T01690105  RH  066%=      5-min Rain = 0
KPD1 240939Z 16009KT 17/11 A2986 RMK A01 T01690106  RH  066%=      5-min Rain = 0
KPD1 240940Z 17011G16KT 17/11 A2986 RMK A01 T01690106  RH  066%=      5-min Rain = 0
KPD1 240941Z 17013KT 17/11 A2986 RMK A01 T01700106  RH  066%=      5-min Rain = 0
KPD1 240942Z 17011G16KT 17/11 A2986 RMK A01 T01710107  RH  066%=      5-min Rain = 0
KPD1 240943Z 17012KT 17/11 A2986 RMK A01 T01710107  RH  066%=      5-min Rain = 0
KPD1 240944Z 17013KT 17/11 A2986 RMK A01 T01720107  RH  066%=      5-min Rain = 0
KPD1 240945Z 17012G17KT 17/11 A2986 RMK A01 T01720107  RH  066%=      5-min Rain = 0
KPD1 240946Z 17013KT 17/11 A2986 RMK A01 T01710107  RH  066%=      5-min Rain = 0
KPD1 240947Z 17011KT 17/11 A2986 RMK A01 T01720107  RH  066%=      5-min Rain = 0
KPD1 240948Z 17012KT 17/11 A2986 RMK A01 T01720108  RH  066%=      5-min Rain = 0
KPD1 240949Z 19009G14KT 17/11 A2986 RMK A01 T01720107  RH  066%=      5-min Rain = 0
KPD1 240950Z 18010KT 17/11 A2986 RMK A01 T01720107  RH  066%=      5-min Rain = 0
KPD1 240951Z 17010KT 17/11 A2986 RMK A01 T01720107  RH  066%=      5-min Rain = 0
KPD1 240952Z 17010KT 17/11 A2986 RMK A01 T01720108  RH  066%=      5-min Rain = 0
KPD1 240953Z 18011KT 17/11 A2986 RMK A01 T01710108  RH  066%=      5-min Rain = 0
KPD1 240954Z 18010KT 17/11 A2986 RMK A01 T01710108  RH  066%=      5-min Rain = 0
KPD1 240955Z 17010KT 17/11 A2986 RMK A01 T01710108  RH  066%=      5-min Rain = 0
KPD1 240956Z 17010KT 17/11 A2986 RMK A01 T01710108  RH  067%=      5-min Rain = 0
KPD1 240957Z 17011KT 17/11 A2986 RMK A01 T01700108  RH  067%=      5-min Rain = 0
KPD1 240958Z 17011KT 17/11 A2986 RMK A01 T01710108  RH  067%=      5-min Rain = 0
KPD1 240959Z 18011KT 17/11 A2986 RMK A01 T01700108  RH  067%=      5-min Rain = 0
KPD1 241000Z 17012KT 17/11 A2986 RMK A01 T01700108  RH  067%=      5-min Rain = 0
KPD1 241001Z 17008KT 17/11 A2986 RMK A01 T01700109  RH  067%=      5-min Rain = 0
KPD1 241002Z 18010KT 17/11 A2986 RMK A01 T01710109  RH  067%=      5-min Rain = 0
KPD1 241003Z 17011KT 17/11 A2986 RMK A01 T01700109  RH  067%=      5-min Rain = 0
KPD1 241004Z 18010KT 17/11 A2986 RMK A01 T01710110  RH  067%=      5-min Rain = 0
KPD1 241005Z 17009KT 17/11 A2986 RMK A01 T01710110  RH  067%=      5-min Rain = 0
KPD1 241006Z 17008KT 17/11 A2986 RMK A01 T01700109  RH  067%=      5-min Rain = 0
KPD1 241007Z 17012KT 17/11 A2986 RMK A01 T01700110  RH  068%=      5-min Rain = 0
KPD1 241008Z 17010KT 17/11 A2986 RMK A01 T01690109  RH  068%=      5-min Rain = 0
KPD1 241009Z 17009KT 17/11 A2986 RMK A01 T01700109  RH  068%=      5-min Rain = 0
KPD1 241010Z 18009KT 17/11 A2986 RMK A01 T01690109  RH  068%=      5-min Rain = 0
KPD1 241011Z 17010G15KT 17/11 A2986 RMK A01 T01680109  RH  068%=      5-min Rain = 0
KPD1 241012Z 17011KT 17/11 A2986 RMK A01 T01680108  RH  068%=      5-min Rain = 0
KPD1 241013Z 17010KT 17/11 A2986 RMK A01 T01680108  RH  068%=      5-min Rain = 0
KPD1 241014Z 18008KT 17/11 A2986 RMK A01 T01680109  RH  068%=      5-min Rain = 0
KPD1 241015Z 18010KT 17/11 A2986 RMK A01 T01670109  RH  069%=      5-min Rain = 0
KPD1 241016Z 18009KT 17/11 A2986 RMK A01 T01660109  RH  069%=      5-min Rain = 0
KPD1 241017Z 18008G13KT 17/11 A2986 RMK A01 T01660109  RH  069%=      5-min Rain = 0
KPD1 241018Z 18009KT 17/11 A2986 RMK A01 T01650109  RH  069%=      5-min Rain = 0
KPD1 241019Z 18008KT 17/11 A2986 RMK A01 T01650109  RH  069%=      5-min Rain = 0
KPD1 241020Z 18011KT 17/11 A2986 RMK A01 T01650110  RH  070%=      5-min Rain = 0
KPD1 241021Z 18011KT 16/11 A2986 RMK A01 T01640109  RH  070%=      5-min Rain = 0
KPD1 241022Z 17009KT 16/11 A2986 RMK A01 T01640110  RH  070%=      5-min Rain = 0
KPD1 241023Z 18009G14KT 16/11 A2986 RMK A01 T01640110  RH  070%=      5-min Rain = 0
KPD1 241024Z 18010KT 16/11 A2986 RMK A01 T01640109  RH  070%=      5-min Rain = 0
KPD1 241025Z 19010KT 16/11 A2986 RMK A01 T01640109  RH  070%=      5-min Rain = 0
KPD1 241026Z 19009KT 16/11 A2986 RMK A01 T01640110  RH  070%=      5-min Rain = 0
KPD1 241027Z 18007KT 16/11 A2986 RMK A01 T01640110  RH  070%=      5-min Rain = 0
KPD1 241028Z 18009KT 16/11 A2986 RMK A01 T01640110  RH  070%=      5-min Rain = 0
KPD1 241029Z 19007KT 16/11 A2986 RMK A01 T01630110  RH  071%=      5-min Rain = 0
KPD1 241030Z 18008KT 16/11 A2986 RMK A01 T01620110  RH  071%=      5-min Rain = 0
KPD1 241031Z 18010KT 16/11 A2986 RMK A01 T01620110  RH  071%=      5-min Rain = 0
KPD1 241032Z 18011KT 16/11 A2986 RMK A01 T01620110  RH  071%=      5-min Rain = 0
KPD1 241033Z 18009KT 16/11 A2986 RMK A01 T01620110  RH  071%=      5-min Rain = 0
KPD1 241034Z 18011KT 16/11 A2986 RMK A01 T01620110  RH  071%=      5-min Rain = 0
KPD1 241035Z 19010KT 16/11 A2986 RMK A01 T01620111  RH  071%=      5-min Rain = 0
KPD1 241036Z 18009KT 16/11 A2986 RMK A01 T01620111  RH  072%=      5-min Rain = 0
KPD1 241037Z 18012KT 16/11 A2986 RMK A01 T01620111  RH  072%=      5-min Rain = 0
KPD1 241038Z 18012KT 16/11 A2986 RMK A01 T01610111  RH  072%=      5-min Rain = 0
KPD1 241039Z 17009KT 16/11 A2986 RMK A01 T01610112  RH  072%=      5-min Rain = 0
KPD1 241040Z 17009KT 16/11 A2986 RMK A01 T01610111  RH  072%=      5-min Rain = 0
KPD1 241041Z 18010KT 16/11 A2986 RMK A01 T01610112  RH  073%=      5-min Rain = 0
KPD1 241042Z 18010G15KT 16/11 A2986 RMK A01 T01600112  RH  073%=      5-min Rain = 0
KPD1 241043Z 19010G15KT 16/11 A2986 RMK A01 T01600112  RH  073%=      5-min Rain = 0
KPD1 241044Z 19011KT 16/11 A2987 RMK A01 T01600112  RH  073%=      5-min Rain = 0
KPD1 241045Z 19011KT 16/11 A2987 RMK A01 T01600113  RH  073%=      5-min Rain = 0
KPD1 241046Z 19010KT 16/11 A2987 RMK A01 T01590113  RH  074%=      5-min Rain = 0
KPD1 241047Z 17010KT 16/11 A2986 RMK A01 T01590113  RH  074%=      5-min Rain = 0
KPD1 241048Z 17009KT 16/11 A2986 RMK A01 T01590113  RH  074%=      5-min Rain = 0
KPD1 241049Z 17009KT 16/11 A2986 RMK A01 T01580113  RH  074%=      5-min Rain = 0
KPD1 241050Z 18009KT 16/11 A2986 RMK A01 T01580113  RH  075%=      5-min Rain = 0
KPD1 241051Z 17009KT 16/11 A2986 RMK A01 T01570113  RH  075%=      5-min Rain = 0
KPD1 241052Z 18010KT 16/11 A2986 RMK A01 T01570113  RH  075%=      5-min Rain = 0
KPD1 241053Z 17008KT 16/11 A2986 RMK A01 T01570114  RH  076%=      5-min Rain = 0
KPD1 241054Z 18008KT 16/11 A2986 RMK A01 T01560113  RH  076%=      5-min Rain = 0
KPD1 241055Z 18007KT 16/11 A2986 RMK A01 T01560113  RH  076%=      5-min Rain = 0
KPD1 241056Z 18008KT 16/11 A2986 RMK A01 T01550113  RH  076%=      5-min Rain = 0
KPD1 241057Z 17008KT 16/11 A2986 RMK A01 T01550114  RH  076%=      5-min Rain = 0
KPD1 241058Z 17010KT 16/11 A2986 RMK A01 T01550114  RH  077%=      5-min Rain = 0
KPD1 241059Z 18010KT 16/11 A2986 RMK A01 T01550114  RH  077%=      5-min Rain = 0
KPD1 241100Z 19008KT 16/11 A2986 RMK A01 T01550114  RH  077%=      5-min Rain = 0
KPD1 241101Z 18009KT 16/12 A2986 RMK A01 T01550115  RH  077%=      5-min Rain = 0
KPD1 241102Z 18008KT 15/12 A2986 RMK A01 T01540115  RH  077%=      5-min Rain = 0
KPD1 241103Z 18010KT 16/12 A2986 RMK A01 T01550115  RH  077%=      5-min Rain = 0
KPD1 241104Z 18009KT 15/12 A2986 RMK A01 T01540115  RH  077%=      5-min Rain = 0
KPD1 241105Z 17008KT 16/12 A2986 RMK A01 T01550115  RH  077%=      5-min Rain = 0
KPD1 241106Z 17009KT 15/12 A2986 RMK A01 T01540115  RH  077%=      5-min Rain = 0
KPD1 241107Z 17010KT 15/12 A2986 RMK A01 T01540115  RH  077%=      5-min Rain = 0
KPD1 241108Z 17009KT 15/12 A2986 RMK A01 T01540115  RH  077%=      5-min Rain = 0
KPD1 241109Z 17007KT 15/12 A2986 RMK A01 T01540115  RH  077%=      5-min Rain = 0
KPD1 241110Z 18008G13KT 15/12 A2986 RMK A01 T01540115  RH  078%=      5-min Rain = 0
KPD1 241111Z 17010KT 15/12 A2986 RMK A01 T01540115  RH  078%=      5-min Rain = 0
KPD1 241112Z 17010KT 15/12 A2986 RMK A01 T01540115  RH  078%=      5-min Rain = 0
KPD1 241113Z 17009KT 15/12 A2986 RMK A01 T01540115  RH  078%=      5-min Rain = 0
KPD1 241114Z 17010KT 15/12 A2986 RMK A01 T01540116  RH  078%=      5-min Rain = 0
KPD1 241115Z 17009KT 15/12 A2986 RMK A01 T01540116  RH  078%=      5-min Rain = 0
KPD1 241116Z 17009KT 15/12 A2986 RMK A01 T01540115  RH  078%=      5-min Rain = 0
KPD1 241117Z 17009KT 15/12 A2986 RMK A01 T01540115  RH  078%=      5-min Rain = 0
KPD1 241118Z 17008KT 15/12 A2986 RMK A01 T01540115  RH  078%=      5-min Rain = 0
KPD1 241119Z 17009KT 15/12 A2986 RMK A01 T01540115  RH  078%=      5-min Rain = 0
KPD1 241120Z 16009KT 15/12 A2986 RMK A01 T01530115  RH  078%=      5-min Rain = 0
KPD1 241121Z 17008KT 15/12 A2986 RMK A01 T01530115  RH  078%=      5-min Rain = 0
KPD1 241122Z 17007KT 15/12 A2986 RMK A01 T01530115  RH  078%=      5-min Rain = 0
KPD1 241123Z 18008KT 15/12 A2986 RMK A01 T01530115  RH  078%=      5-min Rain = 0
KPD1 241124Z 17008KT 15/12 A2986 RMK A01 T01520115  RH  078%=      5-min Rain = 0
KPD1 241125Z 16010KT 15/12 A2986 RMK A01 T01520115  RH  079%=      5-min Rain = 0
KPD1 241126Z 17009KT 15/12 A2986 RMK A01 T01520115  RH  079%=      5-min Rain = 0
KPD1 241127Z 17007KT 15/12 A2986 RMK A01 T01520115  RH  079%=      5-min Rain = 0
KPD1 241128Z 17009KT 15/12 A2986 RMK A01 T01520115  RH  079%=      5-min Rain = 0
KPD1 241129Z 16007KT 15/12 A2986 RMK A01 T01520115  RH  078%=      5-min Rain = 0
KPD1 241130Z 17010KT 15/12 A2986 RMK A01 T01520115  RH  078%=      5-min Rain = 0
KPD1 241131Z 17010KT 15/11 A2986 RMK A01 T01510114  RH  078%=      5-min Rain = 0
KPD1 241132Z 17010KT 15/11 A2986 RMK A01 T01510113  RH  078%=      5-min Rain = 0
KPD1 241133Z 17009KT 15/11 A2987 RMK A01 T01520114  RH  078%=      5-min Rain = 0
KPD1 241134Z 16008KT 15/11 A2987 RMK A01 T01520113  RH  078%=      5-min Rain = 0
KPD1 241135Z 16009KT 15/11 A2987 RMK A01 T01520113  RH  078%=      5-min Rain = 0
KPD1 241136Z 17009KT 15/11 A2987 RMK A01 T01520113  RH  078%=      5-min Rain = 0
KPD1 241137Z 16008KT 15/11 A2987 RMK A01 T01520113  RH  078%=      5-min Rain = 0
KPD1 241138Z 16012KT 15/11 A2987 RMK A01 T01520112  RH  077%=      5-min Rain = 0
KPD1 241139Z 17009KT 15/11 A2986 RMK A01 T01520112  RH  077%=      5-min Rain = 0
KPD1 241140Z 17010KT 15/11 A2986 RMK A01 T01530112  RH  076%=      5-min Rain = 0
KPD1 241141Z 17009KT 15/11 A2986 RMK A01 T01540112  RH  076%=      5-min Rain = 0
KPD1 241142Z 16009KT 15/11 A2986 RMK A01 T01540111  RH  076%=      5-min Rain = 0
KPD1 241143Z 16009KT 15/11 A2986 RMK A01 T01540111  RH  075%=      5-min Rain = 0
KPD1 241144Z 16007KT 15/11 A2986 RMK A01 T01540111  RH  075%=      5-min Rain = 0
KPD1 241145Z 17006KT 15/11 A2986 RMK A01 T01540111  RH  075%=      5-min Rain = 0
KPD1 241146Z 16005KT 15/11 A2986 RMK A01 T01540111  RH  075%=      5-min Rain = 0
KPD1 241147Z 18005KT 15/11 A2986 RMK A01 T01530111  RH  076%=      5-min Rain = 0
KPD1 241148Z 16006KT 15/11 A2986 RMK A01 T01530111  RH  076%=      5-min Rain = 0
KPD1 241149Z 17008KT 15/11 A2987 RMK A01 T01530111  RH  076%=      5-min Rain = 0
KPD1 241150Z 16007KT 15/11 A2986 RMK A01 T01530110  RH  075%=      5-min Rain = 0
KPD1 241151Z 16006KT 15/11 A2987 RMK A01 T01530110  RH  075%=      5-min Rain = 0
KPD1 241152Z 17007KT 15/11 A2987 RMK A01 T01530110  RH  075%=      5-min Rain = 0
KPD1 241153Z 17006KT 15/11 A2987 RMK A01 T01530111  RH  076%=      5-min Rain = 0
KPD1 241154Z 16007KT 15/11 A2987 RMK A01 T01530110  RH  076%=      5-min Rain = 0
KPD1 241155Z 15010KT 15/11 A2987 RMK A01 T01530110  RH  076%=      5-min Rain = 0
KPD1 241156Z 16008KT 15/11 A2987 RMK A01 T01530109  RH  075%=      5-min Rain = 0
KPD1 241157Z 15007KT 15/11 A2987 RMK A01 T01530109  RH  075%=      5-min Rain = 0
KPD1 241158Z 16007KT 15/11 A2986 RMK A01 T01530110  RH  075%=      5-min Rain = 0
KPD1 241159Z 17008KT 15/11 A2986 RMK A01 T01540110  RH  075%=      5-min Rain = 0
KPD1 241200Z 16007KT 15/11 A2986 RMK A01 T01540110  RH  075%=      5-min Rain = 0
KPD1 241201Z 17010KT 15/11 A2987 RMK A01 T01540110  RH  075%=      5-min Rain = 0
KPD1 241202Z 17008KT 15/11 A2986 RMK A01 T01540109  RH  075%=      5-min Rain = 0
KPD1 241203Z 17009KT 15/11 A2986 RMK A01 T01540109  RH  074%=      5-min Rain = 0
KPD1 241204Z 16008KT 15/11 A2986 RMK A01 T01540109  RH  074%=      5-min Rain = 0
KPD1 241205Z 17008KT 16/11 A2986 RMK A01 T01550109  RH  074%=      5-min Rain = 0
KPD1 241206Z 16006KT 16/11 A2986 RMK A01 T01550109  RH  074%=      5-min Rain = 0
KPD1 241207Z 17008KT 16/11 A2986 RMK A01 T01550109  RH  074%=      5-min Rain = 0
KPD1 241208Z 16008KT 16/11 A2986 RMK A01 T01550109  RH  074%=      5-min Rain = 0
KPD1 241209Z 16011KT 16/11 A2986 RMK A01 T01550108  RH  074%=      5-min Rain = 0
KPD1 241210Z 17009KT 16/11 A2986 RMK A01 T01550108  RH  074%=      5-min Rain = 0
KPD1 241211Z 17010KT 16/11 A2986 RMK A01 T01550108  RH  073%=      5-min Rain = 0
KPD1 241212Z 18007KT 16/11 A2986 RMK A01 T01550108  RH  073%=      5-min Rain = 0
KPD1 241213Z 17008KT 16/11 A2986 RMK A01 T01560108  RH  073%=      5-min Rain = 0
KPD1 241214Z 18010KT 16/11 A2986 RMK A01 T01560109  RH  073%=      5-min Rain = 0
KPD1 241215Z 17009KT 16/11 A2986 RMK A01 T01560109  RH  073%=      5-min Rain = 0
KPD1 241216Z 18007KT 16/11 A2986 RMK A01 T01570109  RH  073%=      5-min Rain = 0
KPD1 241217Z 17011KT 16/11 A2986 RMK A01 T01570108  RH  073%=      5-min Rain = 0
KPD1 241218Z 19013KT 16/11 A2986 RMK A01 T01570108  RH  073%=      5-min Rain = 0
KPD1 241219Z 18009KT 16/11 A2986 RMK A01 T01590109  RH  072%=      5-min Rain = 0
KPD1 241220Z 18012KT 16/11 A2986 RMK A01 T01600108  RH  071%=      5-min Rain = 0
KPD1 241221Z 17010KT 16/11 A2986 RMK A01 T01610109  RH  071%=      5-min Rain = 0
KPD1 241222Z 18007G12KT 16/11 A2986 RMK A01 T01610109  RH  071%=      5-min Rain = 0
KPD1 241223Z 17009KT 16/11 A2986 RMK A01 T01600109  RH  071%=      5-min Rain = 0
KPD1 241224Z 17010KT 16/11 A2986 RMK A01 T01600109  RH  072%=      5-min Rain = 0
KPD1 241225Z 17011KT 16/11 A2986 RMK A01 T01600109  RH  072%=      5-min Rain = 0
KPD1 241226Z 17008KT 16/11 A2985 RMK A01 T01600109  RH  072%=      5-min Rain = 0
KPD1 241227Z 17012G18KT 16/11 A2985 RMK A01 T01600109  RH  072%=      5-min Rain = 0
KPD1 241228Z 16012G17KT 16/11 A2985 RMK A01 T01590108  RH  072%=      5-min Rain = 0
KPD1 241229Z 17014KT 16/11 A2985 RMK A01 T01590108  RH  072%=      5-min Rain = 0
KPD1 241230Z 18014KT 16/11 A2985 RMK A01 T01610108  RH  071%=      5-min Rain = 0
KPD1 241231Z 18012G17KT 16/11 A2985 RMK A01 T01610109  RH  071%=      5-min Rain = 0
KPD1 241232Z 18012KT 16/11 A2985 RMK A01 T01610109  RH  071%=      5-min Rain = 0
KPD1 241233Z 17009G14KT 16/11 A2985 RMK A01 T01620109  RH  071%=      5-min Rain = 0
KPD1 241234Z 19013KT 16/11 A2985 RMK A01 T01620109  RH  071%=      5-min Rain = 0
KPD1 241235Z 19012KT 16/11 A2985 RMK A01 T01620109  RH  071%=      5-min Rain = 0
KPD1 241236Z 19012KT 16/11 A2985 RMK A01 T01620109  RH  071%=      5-min Rain = 0
KPD1 241237Z 18015KT 16/11 A2985 RMK A01 T01630109  RH  070%=      5-min Rain = 0
KPD1 241238Z 19011KT 16/11 A2985 RMK A01 T01630109  RH  070%=      5-min Rain = 0
KPD1 241239Z 19013KT 16/11 A2985 RMK A01 T01630110  RH  070%=      5-min Rain = 0
KPD1 241240Z 18013KT 16/11 A2985 RMK A01 T01640110  RH  070%=      5-min Rain = 0
KPD1 241241Z 19013KT 16/11 A2985 RMK A01 T01640110  RH  070%=      5-min Rain = 0
KPD1 241242Z 19011KT 17/11 A2985 RMK A01 T01650110  RH  070%=      5-min Rain = 0
KPD1 241243Z 19008KT 17/11 A2985 RMK A01 T01650110  RH  070%=      5-min Rain = 0
KPD1 241244Z 18013KT 17/11 A2985 RMK A01 T01650110  RH  070%=      5-min Rain = 0
KPD1 241245Z 18011G16KT 17/11 A2985 RMK A01 T01650110  RH  070%=      5-min Rain = 0
KPD1 241246Z 18010KT 17/11 A2985 RMK A01 T01650110  RH  070%=      5-min Rain = 0
KPD1 241247Z 18011KT 17/11 A2985 RMK A01 T01650111  RH  070%=      5-min Rain = 0
KPD1 241248Z 18011KT 17/11 A2985 RMK A01 T01650110  RH  070%=      5-min Rain = 0
KPD1 241249Z 17014KT 17/11 A2985 RMK A01 T01650110  RH  070%=      5-min Rain = 0
KPD1 241250Z 19012KT 17/11 A2985 RMK A01 T01650110  RH  070%=      5-min Rain = 0
KPD1 241251Z 19011KT 17/11 A2985 RMK A01 T01660110  RH  070%=      5-min Rain = 0
KPD1 241252Z 19010G15KT 17/11 A2985 RMK A01 T01660111  RH  070%=      5-min Rain = 0
KPD1 241253Z 18013KT 17/11 A2985 RMK A01 T01670111  RH  070%=      5-min Rain = 0
KPD1 241254Z 18012G17KT 17/11 A2985 RMK A01 T01680111  RH  069%=      5-min Rain = 0
KPD1 241255Z 19009KT 17/11 A2985 RMK A01 T01680111  RH  069%=      5-min Rain = 0
KPD1 241256Z 19009KT 17/11 A2985 RMK A01 T01690112  RH  069%=      5-min Rain = 0
KPD1 241257Z 18012KT 17/11 A2985 RMK A01 T01700112  RH  069%=      5-min Rain = 0
KPD1 241258Z 18009KT 17/11 A2985 RMK A01 T01700111  RH  068%=      5-min Rain = 0
KPD1 241259Z 18010KT 17/11 A2985 RMK A01 T01710112  RH  068%=      5-min Rain = 0
KPD1 241300Z 19007KT 17/11 A2985 RMK A01 T01710112  RH  068%=      5-min Rain = 0
KPD1 241301Z 18009KT 17/11 A2985 RMK A01 T01720113  RH  068%=      5-min Rain = 0
KPD1 241302Z 19008KT 17/11 A2985 RMK A01 T01730113  RH  068%=      5-min Rain = 0
KPD1 241303Z 18009KT 18/11 A2985 RMK A01 T01750114  RH  068%=      5-min Rain = 0
KPD1 241304Z 19008G13KT 18/11 A2985 RMK A01 T01750114  RH  067%=      5-min Rain = 0
KPD1 241305Z 18009KT 18/11 A2985 RMK A01 T01760114  RH  067%=      5-min Rain = 0
KPD1 241306Z 18010KT 18/11 A2985 RMK A01 T01770114  RH  066%=      5-min Rain = 0
KPD1 241307Z 20012G17KT 18/11 A2985 RMK A01 T01780114  RH  066%=      5-min Rain = 0
KPD1 241308Z 18009KT 18/11 A2985 RMK A01 T01790114  RH  066%=      5-min Rain = 0
KPD1 241309Z 19011KT 18/11 A2985 RMK A01 T01800114  RH  066%=      5-min Rain = 0
KPD1 241310Z 19011G16KT 18/11 A2985 RMK A01 T01800114  RH  065%=      5-min Rain = 0
KPD1 241311Z 19011KT 18/11 A2985 RMK A01 T01810114  RH  065%=      5-min Rain = 0
KPD1 241312Z 18012KT 18/12 A2985 RMK A01 T01820115  RH  065%=      5-min Rain = 0
KPD1 241313Z 19014G21KT 18/12 A2985 RMK A01 T01820115  RH  065%=      5-min Rain = 0
KPD1 241314Z 19014KT 18/11 A2985 RMK A01 T01830114  RH  064%=      5-min Rain = 0
KPD1 241315Z 19010KT 18/11 A2985 RMK A01 T01830114  RH  064%=      5-min Rain = 0
KPD1 241316Z 18010G15KT 18/12 A2985 RMK A01 T01840115  RH  064%=      5-min Rain = 0
KPD1 241317Z 20013G19KT 19/12 A2985 RMK A01 T01850116  RH  064%=      5-min Rain = 0
KPD1 241318Z 19015G20KT 19/12 A2985 RMK A01 T01860115  RH  063%=      5-min Rain = 0
KPD1 241319Z 19018G23KT 19/12 A2984 RMK A01 T01860115  RH  063%=      5-min Rain = 0
KPD1 241320Z 19013KT 19/12 A2984 RMK A01 T01870115  RH  063%=      5-min Rain = 0
KPD1 241321Z 20017G24KT 19/12 A2984 RMK A01 T01870115  RH  063%=      5-min Rain = 0
KPD1 241322Z 20014KT 19/12 A2984 RMK A01 T01870115  RH  063%=      5-min Rain = 0
KPD1 241323Z 20015KT 19/12 A2984 RMK A01 T01870115  RH  063%=      5-min Rain = 0
KPD1 241324Z 20012G20KT 19/12 A2984 RMK A01 T01880115  RH  063%=      5-min Rain = 0
KPD1 241325Z 21015G20KT 19/12 A2984 RMK A01 T01880116  RH  063%=      5-min Rain = 0
KPD1 241326Z 20013KT 19/12 A2984 RMK A01 T01890116  RH  062%=      5-min Rain = 0
KPD1 241327Z 20012KT 19/12 A2984 RMK A01 T01890116  RH  062%=      5-min Rain = 0
KPD1 241328Z 20014G19KT 19/12 A2984 RMK A01 T01910117  RH  062%=      5-min Rain = 0
KPD1 241329Z 20014KT 19/12 A2984 RMK A01 T01910116  RH  062%=      5-min Rain = 0
KPD1 241330Z 20015G22KT 19/12 A2984 RMK A01 T01920115  RH  061%=      5-min Rain = 0
KPD1 241331Z 20013KT 19/12 A2984 RMK A01 T01920116  RH  061%=      5-min Rain = 0
KPD1 241332Z 19015KT 19/12 A2984 RMK A01 T01920116  RH  061%=      5-min Rain = 0
KPD1 241333Z 19014KT 19/12 A2984 RMK A01 T01920116  RH  061%=      5-min Rain = 0
KPD1 241334Z 20016G21KT 19/12 A2984 RMK A01 T01920116  RH  061%=      5-min Rain = 0
KPD1 241335Z 19016G21KT 19/12 A2984 RMK A01 T01920116  RH  061%=      5-min Rain = 0
KPD1 241336Z 19016G22KT 19/12 A2984 RMK A01 T01930116  RH  061%=      5-min Rain = 0
KPD1 241337Z 20017G24KT 19/12 A2984 RMK A01 T01930116  RH  061%=      5-min Rain = 0
KPD1 241338Z 19012KT 19/12 A2984 RMK A01 T01930116  RH  061%=      5-min Rain = 0
KPD1 241339Z 18015G22KT 19/12 A2984 RMK A01 T01930117  RH  061%=      5-min Rain = 0
KPD1 241340Z 18013G19KT 19/12 A2984 RMK A01 T01930116  RH  061%=      5-min Rain = 0
KPD1 241341Z 18014KT 19/12 A2984 RMK A01 T01940117  RH  061%=      5-min Rain = 0
KPD1 241342Z 19015G21KT 20/12 A2984 RMK A01 T01950117  RH  061%=      5-min Rain = 0
KPD1 241343Z 18015G22KT 20/12 A2984 RMK A01 T01950117  RH  061%=      5-min Rain = 0
KPD1 241344Z 19010G16KT 20/12 A2984 RMK A01 T01960118  RH  060%=      5-min Rain = 0
KPD1 241345Z 19015G20KT 20/12 A2984 RMK A01 T01970118  RH  060%=      5-min Rain = 0
KPD1 241346Z 19015G20KT 20/12 A2984 RMK A01 T01980118  RH  060%=      5-min Rain = 0
KPD1 241347Z 19011G16KT 20/12 A2984 RMK A01 T01990118  RH  059%=      5-min Rain = 0
KPD1 241348Z 19014G19KT 20/12 A2984 RMK A01 T02000118  RH  059%=      5-min Rain = 0
KPD1 241349Z 20017KT 20/12 A2984 RMK A01 T02000118  RH  059%=      5-min Rain = 0
KPD1 241350Z 19014KT 20/12 A2984 RMK A01 T02010118  RH  059%=      5-min Rain = 0
KPD1 241351Z 20016KT 20/12 A2984 RMK A01 T02020118  RH  058%=      5-min Rain = 0
KPD1 241352Z 18017KT 20/12 A2984 RMK A01 T02030117  RH  058%=      5-min Rain = 0
KPD1 241353Z 19018G24KT 20/12 A2984 RMK A01 T02030118  RH  058%=      5-min Rain = 0
KPD1 241354Z 19015G21KT 20/12 A2984 RMK A01 T02040117  RH  057%=      5-min Rain = 0
KPD1 241355Z 19011KT 21/12 A2984 RMK A01 T02050118  RH  057%=      5-min Rain = 0
KPD1 241356Z 18013G20KT 21/12 A2984 RMK A01 T02070119  RH  057%=      5-min Rain = 0
KPD1 241357Z 20020G25KT 21/12 A2984 RMK A01 T02080119  RH  056%=      5-min Rain = 0
KPD1 241358Z 19018G25KT 21/12 A2984 RMK A01 T02090118  RH  056%=      5-min Rain = 0
KPD1 241359Z 19018G23KT 21/12 A2984 RMK A01 T02090118  RH  056%=      5-min Rain = 0
KPD1 241400Z 20018G27KT 21/12 A2984 RMK A01 T02090117  RH  056%=      5-min Rain = 0
KPD1 241401Z 20019G27KT 21/12 A2984 RMK A01 T02090117  RH  055%=      5-min Rain = 0
KPD1 241402Z 19018G24KT 21/12 A2984 RMK A01 T02100118  RH  056%=      5-min Rain = 0
KPD1 241403Z 20018G23KT 21/12 A2984 RMK A01 T02100117  RH  055%=      5-min Rain = 0
KPD1 241404Z 19014KT 21/12 A2984 RMK A01 T02110118  RH  055%=      5-min Rain = 0
KPD1 241405Z 21013KT 21/12 A2984 RMK A01 T02120119  RH  055%=      5-min Rain = 0
KPD1 241406Z 21014KT 21/12 A2984 RMK A01 T02130119  RH  055%=      5-min Rain = 0
KPD1 241407Z 20017G24KT 21/12 A2984 RMK A01 T02140119  RH  055%=      5-min Rain = 0
KPD1 241408Z 20019G24KT 21/12 A2984 RMK A01 T02140118  RH  054%=      5-min Rain = 0
KPD1 241409Z 18017G23KT 21/12 A2984 RMK A01 T02140119  RH  054%=      5-min Rain = 0
KPD1 241410Z 20018G24KT 22/12 A2984 RMK A01 T02150120  RH  055%=      5-min Rain = 0
KPD1 241411Z 20018G23KT 22/12 A2984 RMK A01 T02150119  RH  054%=      5-min Rain = 0
KPD1 241412Z 20014G26KT 22/12 A2984 RMK A01 T02150119  RH  054%=      5-min Rain = 0
KPD1 241413Z 19019G27KT 22/12 A2984 RMK A01 T02160120  RH  054%=      5-min Rain = 0
KPD1 241414Z 19019G25KT 22/12 A2984 RMK A01 T02160120  RH  054%=      5-min Rain = 0
KPD1 241415Z 19020G25KT 22/12 A2984 RMK A01 T02160121  RH  054%=      5-min Rain = 0
KPD1 241416Z 19014KT 22/12 A2984 RMK A01 T02160121  RH  055%=      5-min Rain = 0
KPD1 241417Z 19019G29KT 22/12 A2984 RMK A01 T02160121  RH  054%=      5-min Rain = 0
KPD1 241418Z 19020G25KT 22/12 A2984 RMK A01 T02170121  RH  054%=      5-min Rain = 0
KPD1 241419Z 19020KT 22/12 A2984 RMK A01 T02180121  RH  054%=      5-min Rain = 0
KPD1 241420Z 19016G25KT 22/12 A2984 RMK A01 T02170121  RH  054%=      5-min Rain = 0
KPD1 241421Z 20019G25KT 22/12 A2984 RMK A01 T02180121  RH  054%=      5-min Rain = 0
KPD1 241422Z 19019G27KT 22/12 A2984 RMK A01 T02180121  RH  054%=      5-min Rain = 0
KPD1 241423Z 21018G24KT 22/12 A2984 RMK A01 T02190121  RH  054%=      5-min Rain = 0
KPD1 241424Z 19018G25KT 22/12 A2984 RMK A01 T02180121  RH  054%=      5-min Rain = 0
KPD1 241425Z 19016G21KT 22/12 A2984 RMK A01 T02190122  RH  054%=      5-min Rain = 0
KPD1 241426Z 19012G20KT 22/12 A2984 RMK A01 T02200123  RH  054%=      5-min Rain = 0
KPD1 241427Z 19018G24KT 22/12 A2984 RMK A01 T02210123  RH  054%=      5-min Rain = 0
KPD1 241428Z 19016G21KT 22/12 A2984 RMK A01 T02220124  RH  053%=      5-min Rain = 0
KPD1 241429Z 19018KT 22/12 A2984 RMK A01 T02230123  RH  053%=      5-min Rain = 0
KPD1 241430Z 18015KT 22/12 A2984 RMK A01 T02240124  RH  053%=      5-min Rain = 0
KPD1 241431Z 18013G18KT 23/13 A2984 RMK A01 T02250125  RH  053%=      5-min Rain = 0
KPD1 241432Z 18015KT 23/12 A2984 RMK A01 T02260124  RH  053%=      5-min Rain = 0
KPD1 241433Z 19012KT 23/12 A2984 RMK A01 T02260124  RH  053%=      5-min Rain = 0
KPD1 241434Z 19015G20KT 23/13 A2984 RMK A01 T02270126  RH  053%=      5-min Rain = 0
KPD1 241435Z 20013KT 23/13 A2984 RMK A01 T02290126  RH  052%=      5-min Rain = 0
KPD1 241436Z 21012G17KT 23/13 A2984 RMK A01 T02300125  RH  052%=      5-min Rain = 0
KPD1 241437Z 20013G20KT 23/13 A2984 RMK A01 T02300126  RH  052%=      5-min Rain = 0
KPD1 241438Z 20017G25KT 23/13 A2984 RMK A01 T02310126  RH  051%=      5-min Rain = 0
KPD1 241439Z 18013G18KT 23/13 A2984 RMK A01 T02310126  RH  051%=      5-min Rain = 0
KPD1 241440Z 19018G23KT 23/13 A2984 RMK A01 T02320126  RH  051%=      5-min Rain = 0
KPD1 241441Z 20015G23KT 23/13 A2984 RMK A01 T02320126  RH  051%=      5-min Rain = 0
KPD1 241442Z 20015G21KT 23/13 A2984 RMK A01 T02320126  RH  051%=      5-min Rain = 0
KPD1 241443Z 21016KT 23/13 A2984 RMK A01 T02320126  RH  051%=      5-min Rain = 0
KPD1 241444Z 20015G22KT 23/13 A2984 RMK A01 T02320125  RH  051%=      5-min Rain = 0
KPD1 241445Z 20015KT 23/13 A2984 RMK A01 T02310126  RH  051%=      5-min Rain = 0
KPD1 241446Z 20016G21KT 23/13 A2984 RMK A01 T02320126  RH  051%=      5-min Rain = 0
KPD1 241447Z 20014G21KT 23/13 A2985 RMK A01 T02320126  RH  051%=      5-min Rain = 0
KPD1 241448Z 20016G22KT 23/13 A2985 RMK A01 T02330125  RH  051%=      5-min Rain = 0
KPD1 241449Z 21014KT 23/13 A2985 RMK A01 T02330126  RH  051%=      5-min Rain = 0
KPD1 241450Z 21014G20KT 23/13 A2985 RMK A01 T02340126  RH  051%=      5-min Rain = 0
KPD1 241451Z 21015G21KT 23/13 A2985 RMK A01 T02340126  RH  051%=      5-min Rain = 0
KPD1 241452Z 21015G20KT 24/13 A2985 RMK A01 T02350126  RH  050%=      5-min Rain = 0
KPD1 241453Z 21012KT 24/13 A2985 RMK A01 T02350127  RH  051%=      5-min Rain = 0
KPD1 241454Z 20010KT 24/13 A2985 RMK A01 T02370129  RH  051%=      5-min Rain = 0
KPD1 241455Z 19011G16KT 24/13 A2985 RMK A01 T02390129  RH  050%=      5-min Rain = 0
KPD1 241456Z 20012G18KT 24/13 A2985 RMK A01 T02400129  RH  050%=      5-min Rain = 0
KPD1 241457Z 22013KT 24/13 A2985 RMK A01 T02410128  RH  049%=      5-min Rain = 0
KPD1 241458Z 20011G19KT 24/13 A2985 RMK A01 T02410129  RH  049%=      5-min Rain = 0
KPD1 241459Z 20013KT 24/13 A2985 RMK A01 T02420129  RH  049%=      5-min Rain = 0
KPD1 241500Z 21011KT 24/13 A2985 RMK A01 T02420128  RH  049%=      5-min Rain = 0
KPD1 241501Z 20014G22KT 24/13 A2985 RMK A01 T02400129  RH  050%=      5-min Rain = 0
KPD1 241502Z 20016G22KT 24/13 A2985 RMK A01 T02410128  RH  049%=      5-min Rain = 0
KPD1 241503Z 20013KT 24/13 A2985 RMK A01 T02400128  RH  049%=      5-min Rain = 0
KPD1 241504Z 20014G21KT 24/13 A2985 RMK A01 T02400128  RH  050%=      5-min Rain = 0
KPD1 241505Z 20011G16KT 24/13 A2985 RMK A01 T02410128  RH  049%=      5-min Rain = 0
KPD1 241506Z 20013G18KT 24/13 A2985 RMK A01 T02420129  RH  049%=      5-min Rain = 0
KPD1 241507Z 20013G19KT 24/13 A2985 RMK A01 T02430128  RH  049%=      5-min Rain = 0
KPD1 241508Z 21010G15KT 24/13 A2985 RMK A01 T02430129  RH  049%=      5-min Rain = 0
KPD1 241509Z 20012KT 25/13 A2985 RMK A01 T02460131  RH  049%=      5-min Rain = 0
KPD1 241510Z 20013G20KT 25/13 A2985 RMK A01 T02480131  RH  048%=      5-min Rain = 0
KPD1 241511Z 20015KT 25/13 A2985 RMK A01 T02490130  RH  048%=      5-min Rain = 0
KPD1 241512Z 19015KT 25/13 A2984 RMK A01 T02480130  RH  048%=      5-min Rain = 0
KPD1 241513Z 20015KT 25/13 A2985 RMK A01 T02470129  RH  048%=      5-min Rain = 0
KPD1 241514Z 20012G17KT 25/13 A2985 RMK A01 T02460129  RH  048%=      5-min Rain = 0
KPD1 241515Z 21013G21KT 25/13 A2985 RMK A01 T02460129  RH  048%=      5-min Rain = 0
KPD1 241516Z 22015G22KT 25/13 A2985 RMK A01 T02460128  RH  048%=      5-min Rain = 0
KPD1 241517Z 22014G21KT 25/13 A2985 RMK A01 T02450127  RH  048%=      5-min Rain = 0
KPD1 241518Z 21014G20KT 24/13 A2985 RMK A01 T02430128  RH  048%=      5-min Rain = 0
KPD1 241519Z 20015G20KT 24/13 A2985 RMK A01 T02430127  RH  048%=      5-min Rain = 0
KPD1 241520Z 20013G18KT 24/13 A2985 RMK A01 T02430128  RH  048%=      5-min Rain = 0
KPD1 241521Z 20014G21KT 25/13 A2985 RMK A01 T02450129  RH  049%=      5-min Rain = 0
KPD1 241522Z 20015G21KT 25/13 A2985 RMK A01 T02460127  RH  048%=      5-min Rain = 0
KPD1 241523Z 20014G20KT 25/13 A2985 RMK A01 T02460127  RH  047%=      5-min Rain = 0
KPD1 241524Z 20011G17KT 25/13 A2985 RMK A01 T02470128  RH  048%=      5-min Rain = 0
KPD1 241525Z 20012KT 25/13 A2985 RMK A01 T02480130  RH  048%=      5-min Rain = 0
KPD1 241526Z 21015G20KT 25/13 A2985 RMK A01 T02490128  RH  047%=      5-min Rain = 0
KPD1 241527Z 21013G21KT 25/13 A2985 RMK A01 T02490129  RH  047%=      5-min Rain = 0
KPD1 241528Z 23012G18KT 25/13 A2985 RMK A01 T02490129  RH  047%=      5-min Rain = 0
KPD1 241529Z 21008KT 25/13 A2985 RMK A01 T02500130  RH  047%=      5-min Rain = 0
KPD1 241530Z 20008G14KT 25/13 A2985 RMK A01 T02520131  RH  047%=      5-min Rain = 0
KPD1 241531Z 21015G21KT 25/13 A2985 RMK A01 T02530130  RH  046%=      5-min Rain = 0
KPD1 241532Z 21016KT 25/13 A2985 RMK A01 T02530128  RH  046%=      5-min Rain = 0
KPD1 241533Z 22014G19KT 25/13 A2985 RMK A01 T02520126  RH  046%=      5-min Rain = 0
KPD1 241534Z 23013KT 25/13 A2985 RMK A01 T02510126  RH  046%=      5-min Rain = 0
KPD1 241535Z 23008KT 25/13 A2985 RMK A01 T02510128  RH  046%=      5-min Rain = 0
KPD1 241536Z 21009G14KT 25/13 A2985 RMK A01 T02530130  RH  046%=      5-min Rain = 0
KPD1 241537Z 21009KT 25/13 A2985 RMK A01 T02540128  RH  046%=      5-min Rain = 0
KPD1 241538Z 20012KT 26/13 A2984 RMK A01 T02550128  RH  045%=      5-min Rain = 0
KPD1 241539Z 20014G19KT 26/13 A2985 RMK A01 T02550127  RH  045%=      5-min Rain = 0
KPD1 241540Z 21015KT 25/13 A2985 RMK A01 T02540126  RH  045%=      5-min Rain = 0
KPD1 241541Z 22013G19KT 25/13 A2985 RMK A01 T02530127  RH  045%=      5-min Rain = 0
KPD1 241542Z 21010KT 25/13 A2985 RMK A01 T02540130  RH  046%=      5-min Rain = 0
KPD1 241543Z 20009G14KT 26/13 A2985 RMK A01 T02560129  RH  045%=      5-min Rain = 0
KPD1 241544Z 21012G17KT 26/13 A2985 RMK A01 T02580129  RH  045%=      5-min Rain = 0
KPD1 241545Z 20011G17KT 26/13 A2985 RMK A01 T02570129  RH  045%=      5-min Rain = 0
KPD1 241546Z 21008G13KT 26/13 A2985 RMK A01 T02570128  RH  045%=      5-min Rain = 0
KPD1 241547Z 20012KT 26/13 A2985 RMK A01 T02560129  RH  045%=      5-min Rain = 0
KPD1 241548Z 22009KT 26/13 A2985 RMK A01 T02570129  RH  045%=      5-min Rain = 0
KPD1 241549Z 21010KT 26/13 A2985 RMK A01 T02570129  RH  045%=      5-min Rain = 0
KPD1 241550Z 20012KT 26/13 A2985 RMK A01 T02580130  RH  045%=      5-min Rain = 0
KPD1 241551Z 21009G14KT 26/13 A2985 RMK A01 T02600130  RH  045%=      5-min Rain = 0
KPD1 241552Z 19012KT 26/13 A2985 RMK A01 T02620132  RH  045%=      5-min Rain = 0
KPD1 241553Z 19013KT 26/13 A2985 RMK A01 T02630128  RH  043%=      5-min Rain = 0
KPD1 241554Z 20015G21KT 26/13 A2985 RMK A01 T02620127  RH  043%=      5-min Rain = 0
KPD1 241555Z 19015KT 26/13 A2985 RMK A01 T02610127  RH  044%=      5-min Rain = 0
KPD1 241556Z 19011G16KT 26/13 A2985 RMK A01 T02600128  RH  044%=      5-min Rain = 0
KPD1 241557Z 21012KT 26/13 A2985 RMK A01 T02610129  RH  044%=      5-min Rain = 0
KPD1 241558Z 21009KT 26/13 A2985 RMK A01 T02620130  RH  044%=      5-min Rain = 0
KPD1 241559Z 22007KT 26/13 A2985 RMK A01 T02630129  RH  044%=      5-min Rain = 0
KPD1 241600Z 21010KT 27/13 A2985 RMK A01 T02650132  RH  044%=      5-min Rain = 0
KPD1 241601Z 19005G11KT 27/13 A2984 RMK A01 T02660131  RH  043%=      5-min Rain = 0
KPD1 241602Z 19009KT 27/13 A2984 RMK A01 T02700134  RH  043%=      5-min Rain = 0
KPD1 241603Z 20010KT 27/13 A2984 RMK A01 T02730132  RH  042%=      5-min Rain = 0
KPD1 241604Z 22014G20KT 27/13 A2984 RMK A01 T02740132  RH  041%=      5-min Rain = 0
KPD1 241605Z 22011KT 27/13 A2984 RMK A01 T02720125  RH  040%=      5-min Rain = 0
KPD1 241606Z 22009KT 27/13 A2984 RMK A01 T02690125  RH  041%=      5-min Rain = 0
KPD1 241607Z 20013KT 27/13 A2984 RMK A01 T02690125  RH  041%=      5-min Rain = 0
KPD1 241608Z 22010KT 27/12 A2984 RMK A01 T02680123  RH  041%=      5-min Rain = 0
KPD1 241609Z 23007KT 27/13 A2984 RMK A01 T02660126  RH  042%=      5-min Rain = 0
KPD1 241610Z 24007KT 27/12 A2984 RMK A01 T02680116  RH  039%=      5-min Rain = 0
KPD1 241611Z 23011KT 27/11 A2984 RMK A01 T02710114  RH  038%=      5-min Rain = 0
KPD1 241612Z 23009G15KT 27/11 A2984 RMK A01 T02720113  RH  037%=      5-min Rain = 0
KPD1 241613Z 23010KT 27/11 A2985 RMK A01 T02710112  RH  037%=      5-min Rain = 0
KPD1 241614Z 23010KT 27/11 A2985 RMK A01 T02710111  RH  037%=      5-min Rain = 0
KPD1 241615Z 23009G14KT 27/11 A2985 RMK A01 T02700110  RH  037%=      5-min Rain = 0
KPD1 241616Z 23009KT 27/11 A2985 RMK A01 T02690114  RH  038%=      5-min Rain = 0
KPD1 241617Z 25011KT 27/12 A2985 RMK A01 T02700116  RH  038%=      5-min Rain = 0
KPD1 241618Z 25013G19KT 27/12 A2985 RMK A01 T02720116  RH  038%=      5-min Rain = 0
KPD1 241619Z 23011KT 27/12 A2985 RMK A01 T02730115  RH  037%=      5-min Rain = 0
KPD1 241620Z 23010KT 27/11 A2985 RMK A01 T02740113  RH  037%=      5-min Rain = 0
KPD1 241621Z 24006KT 27/11 A2985 RMK A01 T02730111  RH  036%=      5-min Rain = 0
KPD1 241622Z 26006KT 27/11 A2985 RMK A01 T02720111  RH  036%=      5-min Rain = 0
KPD1 241623Z 23008G14KT 27/11 A2985 RMK A01 T02720110  RH  036%=      5-min Rain = 0
KPD1 241624Z 22014KT 27/11 A2985 RMK A01 T02720111  RH  036%=      5-min Rain = 0
KPD1 241625Z 22011KT 27/11 A2985 RMK A01 T02730109  RH  036%=      5-min Rain = 0
KPD1 241626Z 23008KT 27/11 A2985 RMK A01 T02710110  RH  037%=      5-min Rain = 0
KPD1 241627Z 25007KT 27/11 A2985 RMK A01 T02720110  RH  036%=      5-min Rain = 0
KPD1 241628Z 24005KT 27/11 A2985 RMK A01 T02730112  RH  037%=      5-min Rain = 0
KPD1 241629Z 25010G15KT 28/12 A2985 RMK A01 T02760117  RH  037%=      5-min Rain = 0
KPD1 241630Z 22009KT 28/12 A2985 RMK A01 T02780118  RH  037%=      5-min Rain = 0
KPD1 241631Z 23005KT 28/12 A2985 RMK A01 T02800118  RH  037%=      5-min Rain = 0
KPD1 241632Z 21009KT 28/12 A2985 RMK A01 T02790117  RH  036%=      5-min Rain = 0
KPD1 241633Z 23007KT 28/11 A2985 RMK A01 T02780114  RH  036%=      5-min Rain = 0
KPD1 241634Z 21005KT 28/11 A2985 RMK A01 T02760113  RH  036%=      5-min Rain = 0
KPD1 241635Z 21005KT 27/11 A2985 RMK A01 T02740112  RH  037%=      5-min Rain = 0
KPD1 241636Z 21011KT 28/12 A2985 RMK A01 T02760116  RH  037%=      5-min Rain = 0
KPD1 241637Z 23009KT 28/11 A2985 RMK A01 T02770114  RH  036%=      5-min Rain = 0
KPD1 241638Z 23010KT 28/12 A2985 RMK A01 T02770115  RH  036%=      5-min Rain = 0
KPD1 241639Z 23007KT 28/11 A2985 RMK A01 T02770114  RH  036%=      5-min Rain = 0
KPD1 241640Z 24005KT 28/11 A2985 RMK A01 T02760112  RH  036%=      5-min Rain = 0
KPD1 241641Z 22008KT 27/11 A2985 RMK A01 T02730111  RH  036%=      5-min Rain = 0
KPD1 241642Z 22007KT 27/11 A2985 RMK A01 T02730113  RH  037%=      5-min Rain = 0
KPD1 241643Z 23008KT 28/11 A2985 RMK A01 T02750112  RH  036%=      5-min Rain = 0
KPD1 241644Z 21006KT 27/11 A2984 RMK A01 T02740111  RH  036%=      5-min Rain = 0
KPD1 241645Z 21009KT 27/11 A2984 RMK A01 T02730112  RH  037%=      5-min Rain = 0
KPD1 241646Z 22009KT 28/11 A2985 RMK A01 T02760111  RH  036%=      5-min Rain = 0
KPD1 241647Z 23008KT 28/11 A2985 RMK A01 T02810110  RH  034%=      5-min Rain = 0
KPD1 241648Z 24010KT 28/11 A2985 RMK A01 T02840106  RH  033%=      5-min Rain = 0
KPD1 241649Z 24008KT 28/09 A2985 RMK A01 T02830093  RH  030%=      5-min Rain = 0
KPD1 241650Z 24009KT 28/09 A2985 RMK A01 T02820091  RH  030%=      5-min Rain = 0
KPD1 241651Z 24007KT 28/09 A2985 RMK A01 T02830089  RH  030%=      5-min Rain = 0
KPD1 241652Z 22005KT 28/09 A2985 RMK A01 T02800091  RH  031%=      5-min Rain = 0
KPD1 241653Z 23004KT 28/10 A2984 RMK A01 T02800095  RH  031%=      5-min Rain = 0
KPD1 241654Z 24007KT 28/10 A2985 RMK A01 T02800099  RH  032%=      5-min Rain = 0
KPD1 241655Z 25008KT 28/10 A2985 RMK A01 T02810097  RH  032%=      5-min Rain = 0
KPD1 241656Z 25005KT 28/10 A2985 RMK A01 T02820097  RH  031%=      5-min Rain = 0
KPD1 241657Z 25005KT 28/10 A2985 RMK A01 T02830099  RH  032%=      5-min Rain = 0
KPD1 241658Z 25005KT 29/10 A2985 RMK A01 T02850100  RH  031%=      5-min Rain = 0
KPD1 241659Z 21004KT 29/10 A2985 RMK A01 T02850099  RH  031%=      5-min Rain = 0
KPD1 241700Z 24008KT 29/10 A2985 RMK A01 T02850103  RH  032%=      5-min Rain = 0
KPD1 241701Z 25010KT 29/10 A2985 RMK A01 T02870098  RH  031%=      5-min Rain = 0
KPD1 241702Z 28008KT 29/10 A2985 RMK A01 T02870097  RH  031%=      5-min Rain = 0
KPD1 241703Z 28008KT 29/10 A2985 RMK A01 T02860095  RH  030%=      5-min Rain = 0
KPD1 241704Z 27009G14KT 29/10 A2985 RMK A01 T02870099  RH  031%=      5-min Rain = 0
KPD1 241705Z 27010KT 29/10 A2985 RMK A01 T02890097  RH  030%=      5-min Rain = 0
KPD1 241706Z 25008KT 29/10 A2985 RMK A01 T02890097  RH  030%=      5-min Rain = 0
KPD1 241707Z 23010KT 29/10 A2985 RMK A01 T02910101  RH  031%=      5-min Rain = 0
KPD1 241708Z 27005KT 29/10 A2985 RMK A01 T02900104  RH  032%=      5-min Rain = 0
KPD1 241709Z 24006KT 29/11 A2985 RMK A01 T02900106  RH  032%=      5-min Rain = 0
KPD1 241710Z 23009G14KT 29/10 A2984 RMK A01 T02910103  RH  031%=      5-min Rain = 0
KPD1 241711Z 22012G17KT 29/10 A2984 RMK A01 T02900095  RH  030%=      5-min Rain = 0
KPD1 241712Z 22013KT 29/09 A2985 RMK A01 T02870093  RH  030%=      5-min Rain = 0
KPD1 241713Z 25007KT 29/10 A2984 RMK A01 T02870095  RH  030%=      5-min Rain = 0
KPD1 241714Z 24003KT 29/10 A2984 RMK A01 T02870097  RH  031%=      5-min Rain = 0
KPD1 241715Z 27005KT 29/10 A2984 RMK A01 T02880099  RH  031%=      5-min Rain = 0
KPD1 241716Z 28006KT 29/10 A2984 RMK A01 T02900101  RH  031%=      5-min Rain = 0
KPD1 241717Z 23005KT 29/10 A2984 RMK A01 T02920104  RH  031%=      5-min Rain = 0
KPD1 241718Z 20007KT 29/10 A2984 RMK A01 T02940099  RH  030%=      5-min Rain = 0
KPD1 241719Z 19005KT 30/10 A2984 RMK A01 T02950099  RH  029%=      5-min Rain = 0
KPD1 241720Z 21005KT 29/10 A2984 RMK A01 T02940100  RH  030%=      5-min Rain = 0
KPD1 241721Z 24006KT 30/10 A2984 RMK A01 T02950099  RH  030%=      5-min Rain = 0
KPD1 241722Z 22009KT 30/10 A2984 RMK A01 T02980098  RH  029%=      5-min Rain = 0
KPD1 241723Z 21006KT 30/10 A2984 RMK A01 T02980099  RH  029%=      5-min Rain = 0
KPD1 241724Z 22009KT 30/10 A2984 RMK A01 T02970100  RH  029%=      5-min Rain = 0
KPD1 241725Z 21006G11KT 30/10 A2984 RMK A01 T02960101  RH  030%=      5-min Rain = 0
KPD1 241726Z 19005KT 29/10 A2984 RMK A01 T02930100  RH  030%=      5-min Rain = 0
KPD1 241727Z 22004KT 29/10 A2984 RMK A01 T02920101  RH  030%=      5-min Rain = 0
KPD1 241728Z 22005KT 29/10 A2984 RMK A01 T02910100  RH  030%=      5-min Rain = 0
KPD1 241729Z 23007KT 29/10 A2984 RMK A01 T02920098  RH  030%=      5-min Rain = 0
KPD1 241730Z 22008KT 29/10 A2984 RMK A01 T02930096  RH  029%=      5-min Rain = 0
KPD1 241731Z 23011KT 29/09 A2984 RMK A01 T02940089  RH  028%=      5-min Rain = 0
KPD1 241732Z 26007KT 29/09 A2984 RMK A01 T02930090  RH  028%=      5-min Rain = 0
KPD1 241733Z 26006KT 30/09 A2984 RMK A01 T02960091  RH  028%=      5-min Rain = 0
KPD1 241734Z 26008KT 30/09 A2984 RMK A01 T02970089  RH  027%=      5-min Rain = 0
KPD1 241735Z 26009KT 30/09 A2984 RMK A01 T02990089  RH  027%=      5-min Rain = 0
KPD1 241736Z 26008KT 30/09 A2984 RMK A01 T03000088  RH  027%=      5-min Rain = 0
KPD1 241737Z 26007KT 30/09 A2984 RMK A01 T03000090  RH  027%=      5-min Rain = 0
KPD1 241738Z 26008KT 30/09 A2984 RMK A01 T03000090  RH  027%=      5-min Rain = 0
KPD1 241739Z 28004KT 30/09 A2984 RMK A01 T02970090  RH  028%=      5-min Rain = 0
KPD1 241740Z 24008KT 30/09 A2984 RMK A01 T02950090  RH  028%=      5-min Rain = 0
KPD1 241741Z 27007KT 30/09 A2984 RMK A01 T02950090  RH  028%=      5-min Rain = 0
KPD1 241742Z 24006KT 30/09 A2984 RMK A01 T02950087  RH  027%=      5-min Rain = 0
KPD1 241743Z 26008KT 29/09 A2984 RMK A01 T02940090  RH  028%=      5-min Rain = 0
KPD1 241744Z 24007KT 30/09 A2984 RMK A01 T02960089  RH  028%=      5-min Rain = 0
KPD1 241745Z 22008G13KT 30/09 A2984 RMK A01 T02990091  RH  027%=      5-min Rain = 0
KPD1 241746Z 24007KT 30/09 A2984 RMK A01 T03030091  RH  027%=      5-min Rain = 0
KPD1 241747Z 23006KT 31/09 A2984 RMK A01 T03050085  RH  026%=      5-min Rain = 0
KPD1 241748Z 22007KT 30/08 A2984 RMK A01 T03040084  RH  025%=      5-min Rain = 0
KPD1 241749Z 26004KT 30/09 A2984 RMK A01 T03030085  RH  026%=      5-min Rain = 0
KPD1 241750Z 22002KT 30/09 A2984 RMK A01 T03030088  RH  026%=      5-min Rain = 0
KPD1 241751Z 26002G7KT 30/09 A2984 RMK A01 T03040085  RH  026%=      5-min Rain = 0
KPD1 241752Z 26007KT 31/09 A2984 RMK A01 T03050088  RH  026%=      5-min Rain = 0
KPD1 241753Z 26009KT 31/09 A2984 RMK A01 T03060085  RH  025%=      5-min Rain = 0
KPD1 241754Z 27008KT 31/08 A2984 RMK A01 T03060078  RH  024%=      5-min Rain = 0
KPD1 241755Z 25011KT 30/08 A2984 RMK A01 T03040080  RH  025%=      5-min Rain = 0
KPD1 241756Z 24010KT 31/08 A2984 RMK A01 T03050083  RH  025%=      5-min Rain = 0
KPD1 241757Z 25010G15KT 31/08 A2984 RMK A01 T03060082  RH  025%=      5-min Rain = 0
KPD1 241758Z 23011KT 30/08 A2984 RMK A01 T03030083  RH  025%=      5-min Rain = 0
KPD1 241759Z 25008KT 30/08 A2984 RMK A01 T03010084  RH  026%=      5-min Rain = 0
KPD1 241800Z 25007KT 30/08 A2984 RMK A01 T03000084  RH  026%=      5-min Rain = 0
KPD1 241801Z 26005KT 30/08 A2983 RMK A01 T03000082  RH  025%=      5-min Rain = 0
KPD1 241802Z 27003KT 30/08 A2983 RMK A01 T03010081  RH  025%=      5-min Rain = 0
KPD1 241803Z 22003KT 30/08 A2983 RMK A01 T03020084  RH  026%=      5-min Rain = 0
KPD1 241804Z 24007KT 31/09 A2983 RMK A01 T03050085  RH  025%=      5-min Rain = 0
KPD1 241805Z 21006G11KT 31/08 A2983 RMK A01 T03100081  RH  024%=      5-min Rain = 0
KPD1 241806Z 19008KT 31/08 A2983 RMK A01 T03120076  RH  023%=      5-min Rain = 0
KPD1 241807Z 20008KT 31/07 A2983 RMK A01 T03140074  RH  022%=      5-min Rain = 0
KPD1 241808Z 18009G14KT 32/08 A2983 RMK A01 T03150078  RH  023%=      5-min Rain = 0
KPD1 241809Z 17012KT 32/08 A2983 RMK A01 T03170078  RH  023%=      5-min Rain = 0
KPD1 241810Z 19010KT 31/08 A2983 RMK A01 T03140076  RH  023%=      5-min Rain = 0
KPD1 241811Z 21007KT 31/08 A2983 RMK A01 T03110075  RH  023%=      5-min Rain = 0
KPD1 241812Z 22010G15KT 31/08 A2983 RMK A01 T03060077  RH  024%=      5-min Rain = 0
KPD1 241813Z 22010KT 31/08 A2983 RMK A01 T03050079  RH  024%=      5-min Rain = 0
KPD1 241814Z 20007KT 31/08 A2983 RMK A01 T03070082  RH  025%=      5-min Rain = 0
KPD1 241815Z 21006KT 31/08 A2983 RMK A01 T03080080  RH  024%=      5-min Rain = 0
KPD1 241816Z 23008KT 31/08 A2983 RMK A01 T03080084  RH  025%=      5-min Rain = 0
KPD1 241817Z 24011KT 31/09 A2983 RMK A01 T03090085  RH  025%=      5-min Rain = 0
KPD1 241818Z 23010KT 31/08 A2983 RMK A01 T03070081  RH  024%=      5-min Rain = 0
KPD1 241819Z 23008KT 31/08 A2983 RMK A01 T03060081  RH  025%=      5-min Rain = 0
KPD1 241820Z 25008KT 31/08 A2983 RMK A01 T03090080  RH  024%=      5-min Rain = 0
KPD1 241821Z 21011KT 31/08 A2983 RMK A01 T03120078  RH  023%=      5-min Rain = 0
KPD1 241822Z 20010KT 31/08 A2983 RMK A01 T03140077  RH  023%=      5-min Rain = 0
KPD1 241823Z 20010KT 31/08 A2983 RMK A01 T03120078  RH  023%=      5-min Rain = 0
KPD1 241824Z 19011KT 31/07 A2983 RMK A01 T03120074  RH  023%=      5-min Rain = 0
KPD1 241825Z 21011KT 31/08 A2983 RMK A01 T03110080  RH  024%=      5-min Rain = 0
KPD1 241826Z 20008KT 31/08 A2983 RMK A01 T03080082  RH  024%=      5-min Rain = 0
KPD1 241827Z 20010KT 31/09 A2983 RMK A01 T03070085  RH  025%=      5-min Rain = 0
KPD1 241828Z 22010KT 31/09 A2983 RMK A01 T03100088  RH  025%=      5-min Rain = 0
KPD1 241829Z 22009KT 31/09 A2983 RMK A01 T03120089  RH  025%=      5-min Rain = 0
KPD1 241830Z 22007KT 31/09 A2983 RMK A01 T03120091  RH  025%=      5-min Rain = 0
KPD1 241831Z 19006KT 31/09 A2983 RMK A01 T03110093  RH  026%=      5-min Rain = 0
KPD1 241832Z 22007G14KT 31/09 A2983 RMK A01 T03130094  RH  026%=      5-min Rain = 0
KPD1 241833Z 22010KT 31/09 A2983 RMK A01 T03130091  RH  025%=      5-min Rain = 0
KPD1 241834Z 21009KT 31/09 A2983 RMK A01 T03110089  RH  025%=      5-min Rain = 0
KPD1 241835Z 21009KT 31/09 A2983 RMK A01 T03090086  RH  025%=      5-min Rain = 0
KPD1 241836Z 20008KT 31/09 A2982 RMK A01 T03080086  RH  025%=      5-min Rain = 0
KPD1 241837Z 21010KT 31/09 A2982 RMK A01 T03090089  RH  025%=      5-min Rain = 0
KPD1 241838Z 20009KT 31/09 A2982 RMK A01 T03110087  RH  025%=      5-min Rain = 0
KPD1 241839Z 19008KT 31/09 A2982 RMK A01 T03130089  RH  025%=      5-min Rain = 0
KPD1 241840Z 20009KT 32/09 A2982 RMK A01 T03160087  RH  024%=      5-min Rain = 0
KPD1 241841Z 20009KT 31/09 A2982 RMK A01 T03140086  RH  024%=      5-min Rain = 0
KPD1 241842Z 18007KT 31/09 A2982 RMK A01 T03140086  RH  024%=      5-min Rain = 0
KPD1 241843Z 15006KT 31/08 A2982 RMK A01 T03140083  RH  024%=      5-min Rain = 0
KPD1 241844Z 18001KT 31/09 A2982 RMK A01 T03140086  RH  024%=      5-min Rain = 0
KPD1 241845Z 27000KT 31/08 A2982 RMK A01 T03140082  RH  024%=      5-min Rain = 0
KPD1 241846Z 25003KT 31/08 A2982 RMK A01 T03110082  RH  024%=      5-min Rain = 0
KPD1 241847Z 25005KT 31/08 A2982 RMK A01 T03110083  RH  024%=      5-min Rain = 0
KPD1 241848Z 24005KT 31/09 A2982 RMK A01 T03110086  RH  025%=      5-min Rain = 0
KPD1 241849Z 18003KT 31/08 A2982 RMK A01 T03100083  RH  024%=      5-min Rain = 0
KPD1 241850Z 21002KT 31/08 A2982 RMK A01 T03090084  RH  025%=      5-min Rain = 0
KPD1 241851Z 25003KT 31/08 A2982 RMK A01 T03070083  RH  025%=      5-min Rain = 0
KPD1 241852Z 22005KT 31/08 A2982 RMK A01 T03060082  RH  025%=      5-min Rain = 0
KPD1 241853Z 21004KT 31/08 A2982 RMK A01 T03050083  RH  025%=      5-min Rain = 0
KPD1 241854Z 18006KT 31/09 A2982 RMK A01 T03090085  RH  025%=      5-min Rain = 0
KPD1 241855Z 17007KT 31/08 A2981 RMK A01 T03130082  RH  024%=      5-min Rain = 0
KPD1 241856Z 19004KT 32/08 A2981 RMK A01 T03150079  RH  023%=      5-min Rain = 0
KPD1 241857Z 17005KT 31/08 A2981 RMK A01 T03140080  RH  023%=      5-min Rain = 0
KPD1 241858Z 21008KT 31/08 A2981 RMK A01 T03140081  RH  023%=      5-min Rain = 0
KPD1 241859Z 23010KT 32/09 A2981 RMK A01 T03150086  RH  024%=      5-min Rain = 0
KPD1 241900Z 22012G17KT 32/08 A2981 RMK A01 T03160084  RH  024%=      5-min Rain = 0
KPD1 241901Z 22013KT 32/08 A2981 RMK A01 T03170083  RH  023%=      5-min Rain = 0
KPD1 241902Z 22011KT 32/08 A2981 RMK A01 T03170082  RH  023%=      5-min Rain = 0
KPD1 241903Z 22008KT 32/08 A2981 RMK A01 T03170081  RH  023%=      5-min Rain = 0
KPD1 241904Z 23007G13KT 32/08 A2981 RMK A01 T03190084  RH  023%=      5-min Rain = 0
KPD1 241905Z 24010KT 32/08 A2981 RMK A01 T03210077  RH  022%=      5-min Rain = 0
KPD1 241906Z 23007KT 32/07 A2981 RMK A01 T03180073  RH  022%=      5-min Rain = 0
KPD1 241907Z 22005KT 32/08 A2981 RMK A01 T03170075  RH  022%=      5-min Rain = 0
KPD1 241908Z 19005KT 32/08 A2981 RMK A01 T03210076  RH  022%=      5-min Rain = 0
KPD1 241909Z 23003KT 32/07 A2981 RMK A01 T03230074  RH  021%=      5-min Rain = 0
KPD1 241910Z 23003KT 32/08 A2981 RMK A01 T03240076  RH  021%=      5-min Rain = 0
KPD1 241911Z 28004KT 32/07 A2981 RMK A01 T03240073  RH  021%=      5-min Rain = 0
KPD1 241912Z 25004KT 32/08 A2981 RMK A01 T03210076  RH  022%=      5-min Rain = 0
KPD1 241913Z 24008KT 32/07 A2981 RMK A01 T03230073  RH  021%=      5-min Rain = 0
KPD1 241914Z 26008KT 32/07 A2981 RMK A01 T03230072  RH  021%=      5-min Rain = 0
KPD1 241915Z 25012KT 32/07 A2981 RMK A01 T03240072  RH  021%=      5-min Rain = 0
KPD1 241916Z 24010KT 33/07 A2981 RMK A01 T03250071  RH  021%=      5-min Rain = 0
KPD1 241917Z 28004KT 32/07 A2981 RMK A01 T03220069  RH  021%=      5-min Rain = 0
KPD1 241918Z 29003KT 32/07 A2981 RMK A01 T03190069  RH  021%=      5-min Rain = 0
KPD1 241919Z 22006KT 32/07 A2981 RMK A01 T03190068  RH  021%=      5-min Rain = 0
KPD1 241920Z 26006KT 32/07 A2981 RMK A01 T03180070  RH  021%=      5-min Rain = 0
KPD1 241921Z 24006KT 32/07 A2981 RMK A01 T03210073  RH  021%=      5-min Rain = 0
KPD1 241922Z 22006KT 32/07 A2981 RMK A01 T03220069  RH  021%=      5-min Rain = 0
KPD1 241923Z 22010KT 32/07 A2981 RMK A01 T03220068  RH  021%=      5-min Rain = 0
KPD1 241924Z 23007KT 32/06 A2981 RMK A01 T03220064  RH  020%=      5-min Rain = 0
KPD1 241925Z 23005KT 32/06 A2981 RMK A01 T03220064  RH  020%=      5-min Rain = 0
KPD1 241926Z 23003KT 32/07 A298 RMK A01 T03210066  RH  020%=      5-min Rain = 0
KPD1 241927Z 17005KT 32/07 A298 RMK A01 T03230066  RH  020%=      5-min Rain = 0
KPD1 241928Z 14005KT 32/07 A298 RMK A01 T03240067  RH  020%=      5-min Rain = 0
KPD1 241929Z 09002KT 32/07 A298 RMK A01 T03230066  RH  020%=      5-min Rain = 0
KPD1 241930Z 08001KT 32/07 A298 RMK A01 T03220067  RH  020%=      5-min Rain = 0
KPD1 241931Z 23002KT 32/07 A298 RMK A01 T03230065  RH  020%=      5-min Rain = 0
KPD1 241932Z 29003KT 33/07 A298 RMK A01 T03250067  RH  020%=      5-min Rain = 0
KPD1 241933Z 27006KT 33/07 A298 RMK A01 T03270067  RH  020%=      5-min Rain = 0
KPD1 241934Z 22006G14KT 33/07 A298 RMK A01 T03280067  RH  020%=      5-min Rain = 0
KPD1 241935Z 20010KT 33/07 A298 RMK A01 T03290067  RH  020%=      5-min Rain = 0
KPD1 241936Z 21006KT 33/06 A298 RMK A01 T03300064  RH  019%=      5-min Rain = 0
KPD1 241937Z 20004KT 33/06 A298 RMK A01 T03250063  RH  019%=      5-min Rain = 0
KPD1 241938Z 17008KT 32/06 A298 RMK A01 T03220062  RH  020%=      5-min Rain = 0
KPD1 241939Z 16012KT 32/06 A298 RMK A01 T03180058  RH  020%=      5-min Rain = 0
KPD1 241940Z 17012KT 31/06 A298 RMK A01 T03140057  RH  020%=      5-min Rain = 0
KPD1 241941Z 14011KT 31/06 A298 RMK A01 T03100055  RH  020%=      5-min Rain = 0
KPD1 241942Z 13008KT 31/06 A298 RMK A01 T03080056  RH  020%=      5-min Rain = 0
KPD1 241943Z 16004KT 31/06 A2979 RMK A01 T03060057  RH  021%=      5-min Rain = 0
KPD1 241944Z 15006KT 31/06 A2979 RMK A01 T03060059  RH  021%=      5-min Rain = 0
KPD1 241945Z 18005KT 31/06 A2979 RMK A01 T03080062  RH  021%=      5-min Rain = 0
KPD1 241946Z 22006KT 31/06 A2979 RMK A01 T03090059  RH  021%=      5-min Rain = 0
KPD1 241947Z 20007KT 31/05 A2979 RMK A01 T03070054  RH  020%=      5-min Rain = 0
KPD1 241948Z 21007G12KT 31/06 A2979 RMK A01 T03090059  RH  021%=      5-min Rain = 0
KPD1 241949Z 21012KT 32/06 A2979 RMK A01 T03150059  RH  020%=      5-min Rain = 0
KPD1 241950Z 21008G14KT 32/06 A2979 RMK A01 T03210056  RH  019%=      5-min Rain = 0
KPD1 241951Z 23011KT 32/05 A2979 RMK A01 T03240051  RH  018%=      5-min Rain = 0
KPD1 241952Z 24008KT 32/05 A2979 RMK A01 T03220049  RH  018%=      5-min Rain = 0
KPD1 241953Z 27007KT 32/05 A2979 RMK A01 T03200051  RH  018%=      5-min Rain = 0
KPD1 241954Z 27007KT 32/05 A2979 RMK A01 T03210052  RH  018%=      5-min Rain = 0
KPD1 241955Z 25006KT 32/05 A2979 RMK A01 T03230049  RH  018%=      5-min Rain = 0
KPD1 241956Z 23003KT 32/05 A2979 RMK A01 T03230046  RH  018%=      5-min Rain = 0
KPD1 241957Z 21004KT 32/05 A2979 RMK A01 T03220048  RH  018%=      5-min Rain = 0
KPD1 241958Z 20008KT 32/05 A2979 RMK A01 T03240050  RH  018%=      5-min Rain = 0
KPD1 241959Z 19010KT 33/06 A2979 RMK A01 T03260056  RH  018%=      5-min Rain = 0
KPD1 242000Z 20015KT 33/05 A2979 RMK A01 T03300050  RH  017%=      5-min Rain = 0
KPD1 242001Z 20016G21KT 33/04 A2979 RMK A01 T03320043  RH  016%=      5-min Rain = 0
KPD1 242002Z 20011KT 33/04 A2979 RMK A01 T03310042  RH  016%=      5-min Rain = 0
KPD1 242003Z 21011KT 33/04 A2979 RMK A01 T03300041  RH  016%=      5-min Rain = 0
KPD1 242004Z 21009KT 33/04 A2979 RMK A01 T03280040  RH  016%=      5-min Rain = 0
KPD1 242005Z 22008KT 33/04 A2979 RMK A01 T03250040  RH  017%=      5-min Rain = 0
KPD1 242006Z 19009KT 33/04 A2979 RMK A01 T03250043  RH  017%=      5-min Rain = 0
KPD1 242007Z 19010KT 33/04 A2979 RMK A01 T03310044  RH  017%=      5-min Rain = 0
KPD1 242008Z 18009KT 33/04 A2978 RMK A01 T03340040  RH  016%=      5-min Rain = 0
KPD1 242009Z 19010KT 33/04 A2978 RMK A01 T03340041  RH  016%=      5-min Rain = 0
KPD1 242010Z 18012KT 34/04 A2978 RMK A01 T03350042  RH  016%=      5-min Rain = 0
KPD1 242011Z 20014G19KT 33/04 A2978 RMK A01 T03340042  RH  016%=      5-min Rain = 0
KPD1 242012Z 20012KT 33/04 A2978 RMK A01 T03330040  RH  016%=      5-min Rain = 0
KPD1 242013Z 20008G16KT 33/04 A2978 RMK A01 T03300041  RH  016%=      5-min Rain = 0
KPD1 242014Z 19009G16KT 33/04 A2978 RMK A01 T03340043  RH  016%=      5-min Rain = 0
KPD1 242015Z 18011KT 34/04 A2978 RMK A01 T03360042  RH  016%=      5-min Rain = 0
KPD1 242016Z 17011KT 34/04 A2978 RMK A01 T03350040  RH  016%=      5-min Rain = 0
KPD1 242017Z 22008KT 33/04 A2978 RMK A01 T03320040  RH  016%=      5-min Rain = 0
KPD1 242018Z 22011KT 33/04 A2978 RMK A01 T03320042  RH  016%=      5-min Rain = 0
KPD1 242019Z 20009G14KT 34/04 A2978 RMK A01 T03350044  RH  016%=      5-min Rain = 0
KPD1 242020Z 20006KT 34/05 A2978 RMK A01 T03380048  RH  016%=      5-min Rain = 0
KPD1 242021Z 18009G17KT 34/05 A2978 RMK A01 T03410049  RH  016%=      5-min Rain = 0
KPD1 242022Z 21009KT 34/05 A2978 RMK A01 T03380048  RH  016%=      5-min Rain = 0
KPD1 242023Z 21008KT 33/05 A2978 RMK A01 T03330054  RH  018%=      5-min Rain = 0
KPD1 242024Z 24006KT 33/06 A2978 RMK A01 T03270056  RH  018%=      5-min Rain = 0
KPD1 242025Z 27009KT 32/06 A2978 RMK A01 T03230057  RH  019%=      5-min Rain = 0
KPD1 242026Z 25007KT 32/06 A2978 RMK A01 T03210055  RH  019%=      5-min Rain = 0
KPD1 242027Z 23006KT 32/06 A2978 RMK A01 T03230060  RH  019%=      5-min Rain = 0
KPD1 242028Z 23007KT 33/06 A2978 RMK A01 T03290062  RH  019%=      5-min Rain = 0
KPD1 242029Z 24004KT 33/06 A2978 RMK A01 T03320062  RH  019%=      5-min Rain = 0
KPD1 242030Z 27007KT 33/06 A2978 RMK A01 T03340064  RH  019%=      5-min Rain = 0
KPD1 242031Z 27008KT 33/06 A2978 RMK A01 T03340063  RH  019%=      5-min Rain = 0
KPD1 242032Z 27010KT 33/06 A2977 RMK A01 T03340063  RH  019%=      5-min Rain = 0
KPD1 242033Z 26011KT 34/06 A2978 RMK A01 T03350060  RH  018%=      5-min Rain = 0
KPD1 242034Z 26005KT 33/06 A2978 RMK A01 T03320061  RH  018%=      5-min Rain = 0
KPD1 242035Z 26007G12KT 33/06 A2977 RMK A01 T03310062  RH  019%=      5-min Rain = 0
KPD1 242036Z 24007KT 33/06 A2977 RMK A01 T03340060  RH  018%=      5-min Rain = 0
KPD1 242037Z 25007KT 33/06 A2977 RMK A01 T03330058  RH  018%=      5-min Rain = 0
KPD1 242038Z 25007KT 33/06 A2977 RMK A01 T03290059  RH  019%=      5-min Rain = 0
KPD1 242039Z 25008KT 33/06 A2977 RMK A01 T03280060  RH  019%=      5-min Rain = 0
KPD1 242040Z 23012G17KT 33/06 A2977 RMK A01 T03280061  RH  019%=      5-min Rain = 0
KPD1 242041Z 23013KT 33/06 A2977 RMK A01 T03270057  RH  019%=      5-min Rain = 0
KPD1 242042Z 24012KT 33/06 A2977 RMK A01 T03250056  RH  019%=      5-min Rain = 0
KPD1 242043Z 25008KT 32/05 A2977 RMK A01 T03220054  RH  019%=      5-min Rain = 0
KPD1 242044Z 27009KT 32/06 A2977 RMK A01 T03200055  RH  019%=      5-min Rain = 0
KPD1 242045Z 28005KT 32/05 A2977 RMK A01 T03200053  RH  019%=      5-min Rain = 0
KPD1 242046Z 29005KT 32/05 A2977 RMK A01 T03180051  RH  019%=      5-min Rain = 0
KPD1 242047Z 31005KT 32/05 A2977 RMK A01 T03160051  RH  019%=      5-min Rain = 0
KPD1 242048Z 24005KT 32/06 A2977 RMK A01 T03170055  RH  019%=      5-min Rain = 0
KPD1 242049Z 24006KT 32/06 A2977 RMK A01 T03230060  RH  019%=      5-min Rain = 0
KPD1 242050Z 19007KT 33/06 A2977 RMK A01 T03300058  RH  018%=      5-min Rain = 0
KPD1 242051Z 20008KT 33/04 A2977 RMK A01 T03340044  RH  016%=      5-min Rain = 0
KPD1 242052Z 19008KT 33/04 A2977 RMK A01 T03330042  RH  016%=      5-min Rain = 0
KPD1 242053Z 19008G14KT 33/04 A2976 RMK A01 T03330041  RH  016%=      5-min Rain = 0
KPD1 242054Z 18013G18KT 33/04 A2976 RMK A01 T03300040  RH  016%=      5-min Rain = 0
KPD1 242055Z 21013KT 33/04 A2976 RMK A01 T03260039  RH  016%=      5-min Rain = 0
KPD1 242056Z 22014KT 32/04 A2976 RMK A01 T03220035  RH  016%=      5-min Rain = 0
KPD1 242057Z 21008KT 32/03 A2976 RMK A01 T03190033  RH  016%=      5-min Rain = 0
KPD1 242058Z 22005KT 32/03 A2976 RMK A01 T03160034  RH  017%=      5-min Rain = 0
KPD1 242059Z 21008KT 32/04 A2976 RMK A01 T03160036  RH  017%=      5-min Rain = 0
KPD1 242100Z 21007G12KT 32/04 A2976 RMK A01 T03150036  RH  017%=      5-min Rain = 0
KPD1 242101Z 21010KT 31/04 A2976 RMK A01 T03140037  RH  017%=      5-min Rain = 0
KPD1 242102Z 20010KT 31/04 A2976 RMK A01 T03140035  RH  017%=      5-min Rain = 0
KPD1 242103Z 19012G17KT 32/03 A2976 RMK A01 T03150034  RH  017%=      5-min Rain = 0
KPD1 242104Z 20013KT 32/03 A2976 RMK A01 T03150028  RH  016%=      5-min Rain = 0
KPD1 242105Z 19013KT 32/03 A2976 RMK A01 T03150025  RH  016%=      5-min Rain = 0
KPD1 242106Z 20010KT 31/02 A2976 RMK A01 T03130024  RH  016%=      5-min Rain = 0
KPD1 242107Z 21009KT 31/02 A2976 RMK A01 T03120024  RH  016%=      5-min Rain = 0
KPD1 242108Z 20007KT 31/03 A2976 RMK A01 T03110026  RH  016%=      5-min Rain = 0
KPD1 242109Z 19008G14KT 31/03 A2976 RMK A01 T03110028  RH  016%=      5-min Rain = 0
KPD1 242110Z 19012KT 31/03 A2976 RMK A01 T03110028  RH  017%=      5-min Rain = 0
KPD1 242111Z 18011KT 31/03 A2976 RMK A01 T03090027  RH  017%=      5-min Rain = 0
KPD1 242112Z 19010G15KT 31/03 A2976 RMK A01 T03080027  RH  017%=      5-min Rain = 0
KPD1 242113Z 19011KT 31/03 A2976 RMK A01 T03080026  RH  017%=      5-min Rain = 0
KPD1 242114Z 20012KT 31/03 A2976 RMK A01 T03070026  RH  017%=      5-min Rain = 0
KPD1 242115Z 20011KT 31/03 A2976 RMK A01 T03060028  RH  017%=      5-min Rain = 0
KPD1 242116Z 21012KT 31/03 A2976 RMK A01 T03060031  RH  017%=      5-min Rain = 0
KPD1 242117Z 20012KT 31/03 A2976 RMK A01 T03050034  RH  018%=      5-min Rain = 0
KPD1 242118Z 18021G34KT 30/03 A2976 RMK A01 T03040032  RH  018%=      5-min Rain = 0
KPD1 242119Z 17020G27KT 30/01 A2977 RMK A01 T03030012  RH  016%=      5-min Rain = 0
KPD1 242120Z 16021KT 30/01 A2977 RMK A01 T03000009  RH  015%=      5-min Rain = 0
KPD1 242121Z 15018G28KT 30/01 A2978 RMK A01 T02970012  RH  016%=      5-min Rain = 0
KPD1 242122Z 17014G20KT 29/02 A2978 RMK A01 T02930018  RH  017%=      5-min Rain = 0
KPD1 242123Z 15012KT 29/02 A2977 RMK A01 T02880022  RH  018%=      5-min Rain = 0
KPD1 242124Z 12012KT 28/03 A2977 RMK A01 T02830027  RH  019%=      5-min Rain = 0
KPD1 242125Z 14010KT 28/03 A2977 RMK A01 T02790032  RH  021%=      5-min Rain = 0
KPD1 242126Z 16012G18KT 28/05 A2977 RMK A01 T02750051  RH  024%=      5-min Rain = 0
KPD1 242127Z 19014G21KT 27/07 A2976 RMK A01 T02690073  RH  029%=      5-min Rain = 0
KPD1 242128Z 18014KT 26/08 A2976 RMK A01 T02600083  RH  032%=      5-min Rain = 0
KPD1 242129Z 18008KT 25/07 A2976 RMK A01 T02530070  RH  031%=      5-min Rain = 0
KPD1 242130Z 16006KT 25/08 A2976 RMK A01 T02500075  RH  033%=      5-min Rain = 0
KPD1 242131Z 15005KT 25/07 A2975 RMK A01 T02480073  RH  033%=      5-min Rain = 0
KPD1 242132Z 17004KT 25/08 A2975 RMK A01 T02480076  RH  033%=      5-min Rain = 0
KPD1 242133Z 17003KT 25/08 A2975 RMK A01 T02470075  RH  033%=      5-min Rain = 0
KPD1 242134Z 17002KT 25/09 A2975 RMK A01 T02470088  RH  037%=      5-min Rain = 0
KPD1 242135Z 14002KT 25/10 A2975 RMK A01 T02450101  RH  040%=      5-min Rain = 0
KPD1 242136Z 05000KT 24/13 A2975 RMK A01 T02440126  RH  048%=      5-min Rain = 0
KPD1 242137Z 01001KT 24/12 A2975 RMK A01 T02410124  RH  048%=      5-min Rain = 0
KPD1 242138Z 23000KT 24/11 A2975 RMK A01 T02400108  RH  044%=      5-min Rain = 0
KPD1 242139Z 22002KT 24/08 A2975 RMK A01 T02400081  RH  036%=      5-min Rain = 0.01
KPD1 242140Z 19004KT 24/06 A2975 RMK A01 T02440055  RH  030%=      5-min Rain = 0
KPD1 242141Z 17006KT 25/06 A2975 RMK A01 T02540056  RH  028%=      5-min Rain = 0
KPD1 242142Z 16005KT 26/07 A2975 RMK A01 T02580067  RH  030%=      5-min Rain = 0
KPD1 242143Z 18003KT 26/07 A2975 RMK A01 T02600067  RH  029%=      5-min Rain = 0
KPD1 242144Z 18003KT 26/06 A2975 RMK A01 T02620064  RH  028%=      5-min Rain = 0
KPD1 242145Z 21003KT 26/06 A2975 RMK A01 T02630064  RH  028%=      5-min Rain = 0
KPD1 242146Z 22004KT 26/07 A2975 RMK A01 T02630073  RH  030%=      5-min Rain = 0
KPD1 242147Z 24004KT 26/07 A2975 RMK A01 T02640070  RH  029%=      5-min Rain = 0
KPD1 242148Z 25004KT 26/08 A2975 RMK A01 T02640077  RH  031%=      5-min Rain = 0
KPD1 242149Z 25004KT 26/08 A2975 RMK A01 T02640075  RH  030%=      5-min Rain = 0
KPD1 242150Z 25004KT 26/07 A2975 RMK A01 T02640069  RH  029%=      5-min Rain = 0
KPD1 242151Z 26005KT 26/07 A2975 RMK A01 T02640069  RH  029%=      5-min Rain = 0
KPD1 242152Z 28004KT 26/07 A2975 RMK A01 T02640069  RH  029%=      5-min Rain = 0
KPD1 242153Z 30004KT 26/08 A2975 RMK A01 T02640078  RH  031%=      5-min Rain = 0
KPD1 242154Z 29003KT 27/08 A2975 RMK A01 T02650081  RH  031%=      5-min Rain = 0
KPD1 242155Z 15001KT 26/09 A2975 RMK A01 T02640087  RH  033%=      5-min Rain = 0
KPD1 242156Z 14003KT 26/08 A2975 RMK A01 T02620077  RH  031%=      5-min Rain = 0
KPD1 242157Z 12002KT 26/08 A2975 RMK A01 T02610075  RH  031%=      5-min Rain = 0
KPD1 242158Z 13005KT 26/09 A2975 RMK A01 T02600086  RH  033%=      5-min Rain = 0
KPD1 242159Z 13005KT 26/08 A2975 RMK A01 T02590078  RH  032%=      5-min Rain = 0
KPD1 242200Z 13007KT 26/08 A2975 RMK A01 T02590080  RH  032%=      5-min Rain = 0
KPD1 242201Z 12005KT 26/09 A2975 RMK A01 T02590087  RH  034%=      5-min Rain = 0
KPD1 242202Z 11004KT 26/09 A2975 RMK A01 T02590085  RH  033%=      5-min Rain = 0
KPD1 242203Z 12004KT 26/09 A2975 RMK A01 T02590088  RH  034%=      5-min Rain = 0
KPD1 242204Z 14006KT 26/08 A2975 RMK A01 T02580082  RH  033%=      5-min Rain = 0
KPD1 242205Z 14009KT 26/09 A2975 RMK A01 T02580086  RH  033%=      5-min Rain = 0
KPD1 242206Z 13008KT 26/09 A2975 RMK A01 T02570085  RH  034%=      5-min Rain = 0
KPD1 242207Z 13011G18KT 26/08 A2975 RMK A01 T02570082  RH  033%=      5-min Rain = 0
KPD1 242208Z 12008KT 26/08 A2975 RMK A01 T02570080  RH  033%=      5-min Rain = 0
KPD1 242209Z 14008G15KT 26/08 A2975 RMK A01 T02560081  RH  033%=      5-min Rain = 0
KPD1 242210Z 13008G14KT 26/07 A2975 RMK A01 T02560071  RH  031%=      5-min Rain = 0
KPD1 242211Z 12007KT 26/07 A2975 RMK A01 T02560069  RH  030%=      5-min Rain = 0
KPD1 242212Z 12009G17KT 26/07 A2975 RMK A01 T02570069  RH  030%=      5-min Rain = 0
KPD1 242213Z 14006KT 26/06 A2975 RMK A01 T02580064  RH  029%=      5-min Rain = 0
KPD1 242214Z 15007G13KT 26/06 A2975 RMK A01 T02580063  RH  029%=      5-min Rain = 0
KPD1 242215Z 10006KT 26/06 A2975 RMK A01 T02580063  RH  029%=      5-min Rain = 0
KPD1 242216Z 10007KT 26/07 A2975 RMK A01 T02580066  RH  030%=      5-min Rain = 0
KPD1 242217Z 11006KT 26/07 A2975 RMK A01 T02580066  RH  029%=      5-min Rain = 0
KPD1 242218Z 11008KT 26/07 A2975 RMK A01 T02570069  RH  030%=      5-min Rain = 0
KPD1 242219Z 12007KT 26/07 A2975 RMK A01 T02570070  RH  030%=      5-min Rain = 0
KPD1 242220Z 11007KT 26/06 A2975 RMK A01 T02560064  RH  029%=      5-min Rain = 0
KPD1 242221Z 11003G8KT 26/06 A2975 RMK A01 T02560055  RH  027%=      5-min Rain = 0
KPD1 242222Z 09001KT 26/05 A2974 RMK A01 T02590054  RH  027%=      5-min Rain = 0
KPD1 242223Z 09002KT 26/06 A2974 RMK A01 T02600059  RH  028%=      5-min Rain = 0
KPD1 242224Z 09004KT 26/07 A2975 RMK A01 T02610066  RH  029%=      5-min Rain = 0
KPD1 242225Z 10006KT 26/07 A2975 RMK A01 T02610067  RH  029%=      5-min Rain = 0
KPD1 242226Z 11006KT 26/05 A2975 RMK A01 T02610052  RH  026%=      5-min Rain = 0
KPD1 242227Z 07004KT 26/05 A2975 RMK A01 T02630053  RH  026%=      5-min Rain = 0
KPD1 242228Z 02003KT 26/06 A2974 RMK A01 T02640055  RH  026%=      5-min Rain = 0
KPD1 242229Z 03004KT 27/06 A2974 RMK A01 T02650058  RH  027%=      5-min Rain = 0
KPD1 242230Z 02004KT 27/07 A2974 RMK A01 T02650067  RH  028%=      5-min Rain = 0
KPD1 242231Z 01005KT 26/07 A2974 RMK A01 T02640068  RH  029%=      5-min Rain = 0
KPD1 242232Z 03005KT 26/07 A2974 RMK A01 T02630074  RH  030%=      5-min Rain = 0
KPD1 242233Z 03006KT 26/08 A2974 RMK A01 T02600076  RH  031%=      5-min Rain = 0
KPD1 242234Z 04005KT 26/08 A2974 RMK A01 T02580076  RH  031%=      5-min Rain = 0
KPD1 242235Z 02005KT 26/08 A2974 RMK A01 T02570079  RH  032%=      5-min Rain = 0
KPD1 242236Z 02006KT 26/08 A2974 RMK A01 T02560077  RH  032%=      5-min Rain = 0
KPD1 242237Z 04005KT 26/08 A2974 RMK A01 T02550077  RH  032%=      5-min Rain = 0
KPD1 242238Z 06005KT 26/08 A2974 RMK A01 T02560080  RH  033%=      5-min Rain = 0
KPD1 242239Z 06009KT 26/08 A2974 RMK A01 T02560076  RH  032%=      5-min Rain = 0
KPD1 242240Z 06008KT 26/08 A2973 RMK A01 T02560076  RH  032%=      5-min Rain = 0
KPD1 242241Z 06005KT 26/08 A2973 RMK A01 T02560076  RH  032%=      5-min Rain = 0
KPD1 242242Z 05008KT 26/08 A2973 RMK A01 T02560078  RH  032%=      5-min Rain = 0
KPD1 242243Z 06009KT 26/08 A2973 RMK A01 T02560076  RH  032%=      5-min Rain = 0
KPD1 242244Z 05007KT 26/08 A2972 RMK A01 T02570076  RH  032%=      5-min Rain = 0
KPD1 242245Z 05007G14KT 26/08 A2972 RMK A01 T02580077  RH  032%=      5-min Rain = 0
KPD1 242246Z 06009KT 26/07 A2972 RMK A01 T02590071  RH  030%=      5-min Rain = 0
KPD1 242247Z 06008KT 26/07 A2972 RMK A01 T02600072  RH  030%=      5-min Rain = 0
KPD1 242248Z 06008G13KT 26/08 A2972 RMK A01 T02610075  RH  031%=      5-min Rain = 0
KPD1 242249Z 07009G16KT 26/08 A2972 RMK A01 T02610077  RH  031%=      5-min Rain = 0
KPD1 242250Z 07012KT 26/07 A2973 RMK A01 T02610074  RH  030%=      5-min Rain = 0
KPD1 242251Z 07011KT 26/07 A2973 RMK A01 T02600072  RH  030%=      5-min Rain = 0
KPD1 242252Z 07009KT 26/07 A2973 RMK A01 T02600071  RH  030%=      5-min Rain = 0
KPD1 242253Z 06006KT 26/08 A2973 RMK A01 T02590076  RH  031%=      5-min Rain = 0
KPD1 242254Z 06006KT 26/08 A2973 RMK A01 T02580076  RH  031%=      5-min Rain = 0
KPD1 242255Z 07006KT 26/08 A2972 RMK A01 T02580075  RH  031%=      5-min Rain = 0
KPD1 242256Z 04005KT 26/07 A2972 RMK A01 T02580074  RH  031%=      5-min Rain = 0
KPD1 242257Z 06004KT 26/08 A2972 RMK A01 T02580076  RH  031%=      5-min Rain = 0
KPD1 242258Z 03002KT 26/07 A2972 RMK A01 T02580073  RH  031%=      5-min Rain = 0
KPD1 242259Z 01002KT 26/07 A2972 RMK A01 T02580073  RH  031%=      5-min Rain = 0
KPD1 242300Z 09001KT 26/08 A2972 RMK A01 T02580077  RH  032%=      5-min Rain = 0
KPD1 242301Z 10001KT 26/08 A2972 RMK A01 T02580081  RH  033%=      5-min Rain = 0
KPD1 242302Z 14001KT 26/08 A2972 RMK A01 T02580075  RH  031%=      5-min Rain = 0
KPD1 242303Z 13004KT 26/08 A2972 RMK A01 T02580075  RH  031%=      5-min Rain = 0
KPD1 242304Z 13002KT 26/07 A2972 RMK A01 T02570069  RH  030%=      5-min Rain = 0
KPD1 242305Z 14003KT 26/06 A2972 RMK A01 T02580061  RH  028%=      5-min Rain = 0
KPD1 242306Z 13002KT 26/06 A2972 RMK A01 T02590055  RH  027%=      5-min Rain = 0
KPD1 242307Z 14001KT 26/06 A2972 RMK A01 T02600057  RH  027%=      5-min Rain = 0
KPD1 242308Z 06002KT 26/06 A2972 RMK A01 T02610061  RH  028%=      5-min Rain = 0
KPD1 242309Z 07003KT 26/06 A2971 RMK A01 T02610062  RH  028%=      5-min Rain = 0
KPD1 242310Z 10002KT 26/07 A2971 RMK A01 T02610065  RH  029%=      5-min Rain = 0
KPD1 242311Z 12001KT 26/06 A2971 RMK A01 T02610063  RH  028%=      5-min Rain = 0
KPD1 242312Z 03001KT 26/06 A2971 RMK A01 T02610064  RH  028%=      5-min Rain = 0
KPD1 242313Z 03001KT 26/07 A2971 RMK A01 T02610066  RH  029%=      5-min Rain = 0
KPD1 242314Z 08001KT 26/07 A2971 RMK A01 T02600072  RH  030%=      5-min Rain = 0
KPD1 242315Z 09003KT 26/07 A2971 RMK A01 T02580065  RH  029%=      5-min Rain = 0
KPD1 242316Z 09002KT 26/07 A2971 RMK A01 T02570066  RH  029%=      5-min Rain = 0
KPD1 242317Z 09003KT 26/06 A2971 RMK A01 T02570063  RH  029%=      5-min Rain = 0
KPD1 242318Z 07002KT 26/06 A2971 RMK A01 T02570057  RH  028%=      5-min Rain = 0
KPD1 242319Z 08001KT 26/06 A2971 RMK A01 T02570059  RH  028%=      5-min Rain = 0
KPD1 242320Z 10001KT 26/06 A2971 RMK A01 T02570064  RH  029%=      5-min Rain = 0
KPD1 242321Z 11002KT 26/06 A2971 RMK A01 T02570062  RH  029%=      5-min Rain = 0
KPD1 242322Z 11002KT 26/06 A2971 RMK A01 T02560061  RH  029%=      5-min Rain = 0
KPD1 242323Z 11002KT 26/06 A2971 RMK A01 T02560061  RH  029%=      5-min Rain = 0
KPD1 242324Z 10002KT 26/06 A2971 RMK A01 T02550061  RH  029%=      5-min Rain = 0
KPD1 242325Z 09002KT 26/07 A2971 RMK A01 T02550065  RH  030%=      5-min Rain = 0
KPD1 242326Z 08002KT 26/07 A2971 RMK A01 T02550070  RH  031%=      5-min Rain = 0
KPD1 242327Z 07003KT 25/08 A2971 RMK A01 T02540075  RH  032%=      5-min Rain = 0
KPD1 242328Z 07002KT 25/07 A2971 RMK A01 T02530071  RH  031%=      5-min Rain = 0
KPD1 242329Z 09002KT 25/08 A2971 RMK A01 T02530075  RH  032%=      5-min Rain = 0
KPD1 242330Z 11002KT 25/07 A2971 RMK A01 T02520071  RH  032%=      5-min Rain = 0
KPD1 242331Z 12002KT 25/07 A2971 RMK A01 T02510073  RH  032%=      5-min Rain = 0
KPD1 242332Z 14003KT 25/07 A2971 RMK A01 T02510070  RH  032%=      5-min Rain = 0
KPD1 242333Z 15002KT 25/07 A2971 RMK A01 T02500068  RH  031%=      5-min Rain = 0
KPD1 242334Z 17003KT 25/07 A2971 RMK A01 T02490067  RH  031%=      5-min Rain = 0
KPD1 242335Z 19006KT 25/07 A2972 RMK A01 T02480071  RH  032%=      5-min Rain = 0
KPD1 242336Z 19009KT 25/08 A2972 RMK A01 T02470075  RH  033%=      5-min Rain = 0
KPD1 242337Z 20013KT 25/07 A2972 RMK A01 T02460070  RH  033%=      5-min Rain = 0
KPD1 242338Z 20014KT 25/04 A2972 RMK A01 T02500041  RH  026%=      5-min Rain = 0
KPD1 242339Z 22009KT 26/04 A2972 RMK A01 T02600038  RH  024%=      5-min Rain = 0
KPD1 242340Z 21009KT 26/04 A2972 RMK A01 T02640040  RH  024%=      5-min Rain = 0
KPD1 242341Z 19009KT 27/05 A2972 RMK A01 T02660045  RH  024%=      5-min Rain = 0
KPD1 242342Z 18009KT 27/05 A2972 RMK A01 T02650051  RH  025%=      5-min Rain = 0
KPD1 242343Z 18010KT 26/05 A2972 RMK A01 T02640050  RH  025%=      5-min Rain = 0
KPD1 242344Z 18015KT 26/04 A2972 RMK A01 T02640044  RH  024%=      5-min Rain = 0
KPD1 242345Z 18010G16KT 27/03 A2972 RMK A01 T02650031  RH  022%=      5-min Rain = 0
KPD1 242346Z 20009KT 27/03 A2972 RMK A01 T02680029  RH  021%=      5-min Rain = 0
KPD1 242347Z 23005G10KT 27/03 A2972 RMK A01 T02700026  RH  021%=      5-min Rain = 0
KPD1 242348Z 36009G14KT 27/02 A2971 RMK A01 T02720019  RH  020%=      5-min Rain = 0
KPD1 242349Z 34013G19KT 27/02 A297 RMK A01 T02720020  RH  019%=      5-min Rain = 0
KPD1 242350Z 03014KT 27/01 A297 RMK A01 T02720012  RH  018%=      5-min Rain = 0
KPD1 242351Z 04008KT 27/01 A2969 RMK A01 T02740006  RH  017%=      5-min Rain = 0
KPD1 242352Z 08006KT 28/00 A2969 RMK A01 T02760003  RH  017%=      5-min Rain = 0
KPD1 242353Z 07009G16KT 28/01 A2968 RMK A01 T02770007  RH  017%=      5-min Rain = 0
KPD1 242354Z 07015KT 28/01 A2967 RMK A01 T02770011  RH  018%=      5-min Rain = 0
KPD1 242355Z 08013G18KT 28/01 A2967 RMK A01 T02770011  RH  018%=      5-min Rain = 0
KPD1 242356Z 09010KT 28/01 A2967 RMK A01 T02770014  RH  018%=      5-min Rain = 0
KPD1 242357Z 06007KT 28/02 A2967 RMK A01 T02760017  RH  019%=      5-min Rain = 0
KPD1 242358Z 35004KT 28/02 A2967 RMK A01 T02750016  RH  019%=      5-min Rain = 0
KPD1 242359Z 35004KT 28/02 A2967 RMK A01 T02750017  RH  019%=      5-min Rain = 0
KPD1 250000Z 06002KT 27/02 A2967 RMK A01 T02740018  RH  019%=      5-min Rain = 0
KPD1 250001Z 16002KT 27/02 A2967 RMK A01 T02740016  RH  019%=      5-min Rain = 0
KPD1 250002Z 13004KT 27/02 A2967 RMK A01 T02740020  RH  019%=      5-min Rain = 0
KPD1 250003Z 14003KT 27/02 A2967 RMK A01 T02740023  RH  020%=      5-min Rain = 0
KPD1 250004Z 13004KT 27/02 A2967 RMK A01 T02730018  RH  019%=      5-min Rain = 0
KPD1 250005Z 13003KT 27/02 A2967 RMK A01 T02730021  RH  020%=      5-min Rain = 0
KPD1 250006Z 13005KT 27/02 A2967 RMK A01 T02730023  RH  020%=      5-min Rain = 0
KPD1 250007Z 13006KT 27/02 A2967 RMK A01 T02730024  RH  020%=      5-min Rain = 0
KPD1 250008Z 12007KT 27/02 A2967 RMK A01 T02720015  RH  019%=      5-min Rain = 0
KPD1 250009Z 11004KT 27/01 A2967 RMK A01 T02730007  RH  018%=      5-min Rain = 0
KPD1 250010Z 12004KT 28/01 A2967 RMK A01 T02750010  RH  018%=      5-min Rain = 0
KPD1 250011Z 11005KT 28/02 A2967 RMK A01 T02760015  RH  018%=      5-min Rain = 0
KPD1 250012Z 11005KT 28/02 A2967 RMK A01 T02760019  RH  019%=      5-min Rain = 0
KPD1 250013Z 13004KT 28/02 A2966 RMK A01 T02750016  RH  019%=      5-min Rain = 0
KPD1 250014Z 14004KT 28/01 A2966 RMK A01 T02750014  RH  018%=      5-min Rain = 0
KPD1 250015Z 14006KT 28/02 A2967 RMK A01 T02750017  RH  019%=      5-min Rain = 0
KPD1 250016Z 16005KT 27/01 A2967 RMK A01 T02740014  RH  019%=      5-min Rain = 0
KPD1 250017Z 18006KT 27/02 A2967 RMK A01 T02740018  RH  019%=      5-min Rain = 0
KPD1 250018Z 18007KT 27/02 A2967 RMK A01 T02730019  RH  019%=      5-min Rain = 0
KPD1 250019Z 19006KT 27/02 A2967 RMK A01 T02720017  RH  019%=      5-min Rain = 0
KPD1 250020Z 20006KT 27/02 A2967 RMK A01 T02710018  RH  019%=      5-min Rain = 0
KPD1 250021Z 20007KT 27/02 A2967 RMK A01 T02700018  RH  020%=      5-min Rain = 0
KPD1 250022Z 20006KT 27/02 A2967 RMK A01 T02690017  RH  020%=      5-min Rain = 0
KPD1 250023Z 18007KT 27/02 A2968 RMK A01 T02690019  RH  020%=      5-min Rain = 0
KPD1 250024Z 18005KT 27/02 A2968 RMK A01 T02680017  RH  020%=      5-min Rain = 0
KPD1 250025Z 17005KT 27/02 A2968 RMK A01 T02670017  RH  020%=      5-min Rain = 0
KPD1 250026Z 16004KT 27/02 A2969 RMK A01 T02680015  RH  019%=      5-min Rain = 0
KPD1 250027Z 15003KT 27/01 A2969 RMK A01 T02670014  RH  019%=      5-min Rain = 0
KPD1 250028Z 15003KT 27/01 A2969 RMK A01 T02670014  RH  019%=      5-min Rain = 0
KPD1 250029Z 16004KT 27/01 A297 RMK A01 T02670014  RH  019%=      5-min Rain = 0
KPD1 250030Z 13003KT 27/01 A297 RMK A01 T02670014  RH  019%=      5-min Rain = 0
KPD1 250031Z 13004KT 27/01 A297 RMK A01 T02670013  RH  019%=      5-min Rain = 0
KPD1 250032Z 12003KT 27/01 A297 RMK A01 T02660014  RH  019%=      5-min Rain = 0
KPD1 250033Z 11003KT 27/01 A297 RMK A01 T02660013  RH  019%=      5-min Rain = 0
KPD1 250034Z 11003KT 27/01 A297 RMK A01 T02650013  RH  019%=      5-min Rain = 0
KPD1 250035Z 12002KT 27/01 A297 RMK A01 T02650012  RH  019%=      5-min Rain = 0
KPD1 250036Z 12003KT 27/02 A297 RMK A01 T02650016  RH  020%=      5-min Rain = 0
KPD1 250037Z 10004KT 26/02 A297 RMK A01 T02640015  RH  020%=      5-min Rain = 0
KPD1 250038Z 08005KT 26/02 A297 RMK A01 T02630018  RH  020%=      5-min Rain = 0
KPD1 250039Z 07004KT 26/03 A297 RMK A01 T02630025  RH  021%=      5-min Rain = 0
KPD1 250040Z 09004KT 26/03 A297 RMK A01 T02620025  RH  022%=      5-min Rain = 0
KPD1 250041Z 07003KT 26/02 A297 RMK A01 T02610023  RH  021%=      5-min Rain = 0
KPD1 250042Z 08003KT 26/02 A297 RMK A01 T02610024  RH  021%=      5-min Rain = 0
KPD1 250043Z 08004KT 26/02 A297 RMK A01 T02600023  RH  021%=      5-min Rain = 0
KPD1 250044Z 07004KT 26/03 A297 RMK A01 T02600027  RH  022%=      5-min Rain = 0
KPD1 250045Z 07004KT 26/03 A297 RMK A01 T02600026  RH  022%=      5-min Rain = 0
KPD1 250046Z 07004KT 26/03 A297 RMK A01 T02590027  RH  022%=      5-min Rain = 0
KPD1 250047Z 09004KT 26/03 A297 RMK A01 T02590029  RH  023%=      5-min Rain = 0
KPD1 250048Z 08004KT 26/03 A297 RMK A01 T02590026  RH  022%=      5-min Rain = 0
KPD1 250049Z 07002KT 26/03 A297 RMK A01 T02580027  RH  022%=      5-min Rain = 0
KPD1 250050Z 07004KT 26/03 A297 RMK A01 T02580027  RH  022%=      5-min Rain = 0
KPD1 250051Z 07003KT 26/03 A2969 RMK A01 T02580027  RH  022%=      5-min Rain = 0
KPD1 250052Z 06002KT 26/03 A2969 RMK A01 T02580025  RH  022%=      5-min Rain = 0
KPD1 250053Z 07003KT 26/03 A2969 RMK A01 T02580027  RH  022%=      5-min Rain = 0
KPD1 250054Z 07002KT 26/02 A2969 RMK A01 T02580021  RH  021%=      5-min Rain = 0
KPD1 250055Z 10001KT 26/02 A2969 RMK A01 T02590023  RH  022%=      5-min Rain = 0
KPD1 250056Z 06002KT 26/02 A2969 RMK A01 T02590024  RH  022%=      5-min Rain = 0
KPD1 250057Z 06002KT 26/03 A2969 RMK A01 T02590027  RH  022%=      5-min Rain = 0
KPD1 250058Z 07002KT 26/03 A2969 RMK A01 T02580027  RH  022%=      5-min Rain = 0
KPD1 250059Z 05002KT 26/03 A2969 RMK A01 T02570029  RH  023%=      5-min Rain = 0
KPD1 250100Z 06002KT 26/03 A2968 RMK A01 T02560033  RH  024%=      5-min Rain = 0
KPD1 250101Z 07001KT 26/03 A2968 RMK A01 T02550034  RH  024%=      5-min Rain = 0
KPD1 250102Z 11002KT 25/03 A2968 RMK A01 T02540034  RH  024%=      5-min Rain = 0
KPD1 250103Z 11004KT 25/03 A2968 RMK A01 T02530031  RH  024%=      5-min Rain = 0
KPD1 250104Z 11004KT 25/03 A2968 RMK A01 T02510031  RH  024%=      5-min Rain = 0
KPD1 250105Z 11004KT 25/03 A2968 RMK A01 T02500031  RH  024%=      5-min Rain = 0
KPD1 250106Z 11003KT 25/03 A2968 RMK A01 T02490028  RH  024%=      5-min Rain = 0
KPD1 250107Z 09002KT 25/03 A2968 RMK A01 T02490030  RH  024%=      5-min Rain = 0
KPD1 250108Z 05003KT 25/03 A2968 RMK A01 T02480031  RH  024%=      5-min Rain = 0
KPD1 250109Z 04004KT 25/03 A2967 RMK A01 T02490028  RH  024%=      5-min Rain = 0
KPD1 250110Z 04004KT 25/03 A2967 RMK A01 T02500027  RH  023%=      5-min Rain = 0
KPD1 250111Z 04004KT 25/03 A2967 RMK A01 T02510028  RH  023%=      5-min Rain = 0
KPD1 250112Z 04003KT 25/03 A2967 RMK A01 T02520030  RH  024%=      5-min Rain = 0
KPD1 250113Z 07002KT 25/04 A2967 RMK A01 T02510038  RH  025%=      5-min Rain = 0
KPD1 250114Z 10003KT 25/04 A2967 RMK A01 T02490035  RH  025%=      5-min Rain = 0
KPD1 250115Z 10005KT 25/03 A2967 RMK A01 T02470033  RH  025%=      5-min Rain = 0
KPD1 250116Z 11004KT 25/03 A2967 RMK A01 T02460034  RH  025%=      5-min Rain = 0
KPD1 250117Z 11003KT 25/04 A2967 RMK A01 T02450037  RH  026%=      5-min Rain = 0
KPD1 250118Z 10004KT 24/04 A2967 RMK A01 T02440036  RH  026%=      5-min Rain = 0
KPD1 250119Z 10004KT 24/04 A2967 RMK A01 T02430035  RH  026%=      5-min Rain = 0
KPD1 250120Z 10003KT 24/04 A2967 RMK A01 T02420036  RH  026%=      5-min Rain = 0
KPD1 250121Z 10002KT 24/04 A2967 RMK A01 T02420037  RH  026%=      5-min Rain = 0
KPD1 250122Z 11003KT 24/04 A2967 RMK A01 T02410036  RH  026%=      5-min Rain = 0
KPD1 250123Z 13004KT 24/04 A2967 RMK A01 T02400036  RH  027%=      5-min Rain = 0
KPD1 250124Z 13004KT 24/04 A2967 RMK A01 T02390036  RH  027%=      5-min Rain = 0
KPD1 250125Z 12004KT 24/04 A2967 RMK A01 T02380036  RH  027%=      5-min Rain = 0
KPD1 250126Z 11003KT 24/04 A2967 RMK A01 T02380039  RH  027%=      5-min Rain = 0
KPD1 250127Z 12004KT 24/04 A2967 RMK A01 T02380040  RH  028%=      5-min Rain = 0
KPD1 250128Z 12003KT 24/04 A2967 RMK A01 T02370039  RH  027%=      5-min Rain = 0
KPD1 250129Z 12003KT 24/04 A2967 RMK A01 T02370038  RH  027%=      5-min Rain = 0
KPD1 250130Z 10003KT 24/04 A2967 RMK A01 T02370039  RH  028%=      5-min Rain = 0
KPD1 250131Z 08004KT 24/04 A2967 RMK A01 T02370040  RH  028%=      5-min Rain = 0
KPD1 250132Z 08004KT 24/04 A2967 RMK A01 T02360040  RH  028%=      5-min Rain = 0
KPD1 250133Z 10003KT 24/04 A2967 RMK A01 T02360040  RH  028%=      5-min Rain = 0
KPD1 250134Z 08003KT 24/04 A2967 RMK A01 T02370043  RH  028%=      5-min Rain = 0
KPD1 250135Z 07005KT 24/04 A2968 RMK A01 T02370044  RH  029%=      5-min Rain = 0
KPD1 250136Z 07006KT 24/04 A2968 RMK A01 T02390043  RH  028%=      5-min Rain = 0
KPD1 250137Z 06006KT 24/05 A2968 RMK A01 T02410045  RH  028%=      5-min Rain = 0
KPD1 250138Z 07006KT 24/05 A2968 RMK A01 T02420048  RH  028%=      5-min Rain = 0
KPD1 250139Z 08006KT 24/05 A2968 RMK A01 T02420051  RH  029%=      5-min Rain = 0
KPD1 250140Z 11007KT 24/05 A2969 RMK A01 T02420052  RH  029%=      5-min Rain = 0
KPD1 250141Z 12006KT 24/05 A2969 RMK A01 T02420049  RH  029%=      5-min Rain = 0
KPD1 250142Z 12007KT 24/05 A2969 RMK A01 T02420052  RH  029%=      5-min Rain = 0
KPD1 250143Z 12006KT 24/06 A2969 RMK A01 T02410057  RH  030%=      5-min Rain = 0
KPD1 250144Z 12004KT 24/06 A2969 RMK A01 T02400060  RH  031%=      5-min Rain = 0
KPD1 250145Z 14007KT 24/06 A2969 RMK A01 T02380060  RH  032%=      5-min Rain = 0
KPD1 250146Z 13009KT 24/06 A2969 RMK A01 T02370059  RH  032%=      5-min Rain = 0
KPD1 250147Z 14006KT 24/06 A2969 RMK A01 T02360057  RH  031%=      5-min Rain = 0
KPD1 250148Z 14008KT 24/06 A297 RMK A01 T02360058  RH  032%=      5-min Rain = 0
KPD1 250149Z 14007KT 24/06 A2969 RMK A01 T02360057  RH  032%=      5-min Rain = 0
KPD1 250150Z 14010KT 24/06 A297 RMK A01 T02360057  RH  031%=      5-min Rain = 0
KPD1 250151Z 14010KT 24/06 A297 RMK A01 T02360055  RH  031%=      5-min Rain = 0
KPD1 250152Z 14010KT 24/06 A297 RMK A01 T02360055  RH  031%=      5-min Rain = 0
KPD1 250153Z 15010KT 24/06 A297 RMK A01 T02370055  RH  031%=      5-min Rain = 0
KPD1 250154Z 15009KT 24/06 A297 RMK A01 T02370055  RH  031%=      5-min Rain = 0
KPD1 250155Z 13007KT 24/06 A297 RMK A01 T02370055  RH  031%=      5-min Rain = 0
KPD1 250156Z 14008G14KT 24/06 A297 RMK A01 T02370056  RH  031%=      5-min Rain = 0
KPD1 250157Z 14008KT 24/06 A297 RMK A01 T02370056  RH  031%=      5-min Rain = 0
KPD1 250158Z 13006KT 24/06 A297 RMK A01 T02360056  RH  031%=      5-min Rain = 0
KPD1 250159Z 14007KT 24/06 A297 RMK A01 T02360056  RH  031%=      5-min Rain = 0
KPD1 250200Z 13008KT 24/06 A297 RMK A01 T02350056  RH  031%=      5-min Rain = 0
KPD1 250201Z 14008KT 24/06 A297 RMK A01 T02360057  RH  032%=      5-min Rain = 0
KPD1 250202Z 15007KT 24/06 A297 RMK A01 T02350057  RH  031%=      5-min Rain = 0
KPD1 250203Z 14005KT 24/06 A297 RMK A01 T02350057  RH  032%=      5-min Rain = 0
KPD1 250204Z 15009G14KT 24/06 A297 RMK A01 T02350057  RH  032%=      5-min Rain = 0
KPD1 250205Z 15011KT 24/06 A297 RMK A01 T02350058  RH  032%=      5-min Rain = 0
KPD1 250206Z 14010KT 24/06 A297 RMK A01 T02350058  RH  032%=      5-min Rain = 0
KPD1 250207Z 14007KT 23/06 A2971 RMK A01 T02340058  RH  032%=      5-min Rain = 0
KPD1 250208Z 14006KT 23/06 A2971 RMK A01 T02340058  RH  032%=      5-min Rain = 0
KPD1 250209Z 14008KT 23/06 A2971 RMK A01 T02340059  RH  032%=      5-min Rain = 0
KPD1 250210Z 15009KT 23/06 A297 RMK A01 T02330058  RH  032%=      5-min Rain = 0
KPD1 250211Z 15009KT 23/06 A297 RMK A01 T02330058  RH  032%=      5-min Rain = 0
KPD1 250212Z 15010KT 23/06 A297 RMK A01 T02320057  RH  032%=      5-min Rain = 0
KPD1 250213Z 14008KT 23/06 A2971 RMK A01 T02320057  RH  032%=      5-min Rain = 0
KPD1 250214Z 16006KT 23/06 A2971 RMK A01 T02320056  RH  032%=      5-min Rain = 0
KPD1 250215Z 14007KT 23/06 A2971 RMK A01 T02320057  RH  032%=      5-min Rain = 0
KPD1 250216Z 14009G14KT 23/06 A2971 RMK A01 T02320056  RH  032%=      5-min Rain = 0
KPD1 250217Z 12007KT 23/06 A2971 RMK A01 T02320055  RH  032%=      5-min Rain = 0
KPD1 250218Z 15004KT 23/06 A2971 RMK A01 T02310057  RH  032%=      5-min Rain = 0
KPD1 250219Z 12008KT 23/06 A2971 RMK A01 T02310057  RH  032%=      5-min Rain = 0
KPD1 250220Z 11005KT 23/06 A2971 RMK A01 T02310060  RH  033%=      5-min Rain = 0
KPD1 250221Z 11003KT 23/06 A2971 RMK A01 T02290062  RH  034%=      5-min Rain = 0
KPD1 250222Z 10003G8KT 23/06 A2971 RMK A01 T02290062  RH  034%=      5-min Rain = 0
KPD1 250223Z 12006KT 23/06 A2972 RMK A01 T02280062  RH  034%=      5-min Rain = 0
KPD1 250224Z 09008KT 23/07 A2972 RMK A01 T02270065  RH  035%=      5-min Rain = 0
KPD1 250225Z 10007KT 23/07 A2972 RMK A01 T02250069  RH  037%=      5-min Rain = 0
KPD1 250226Z 13006KT 22/07 A2972 RMK A01 T02240069  RH  037%=      5-min Rain = 0
KPD1 250227Z 11010G15KT 22/07 A2972 RMK A01 T02230070  RH  037%=      5-min Rain = 0
KPD1 250228Z 11006G13KT 22/07 A2972 RMK A01 T02220070  RH  037%=      5-min Rain = 0
KPD1 250229Z 10010G16KT 22/07 A2972 RMK A01 T02210071  RH  038%=      5-min Rain = 0
KPD1 250230Z 10008G13KT 22/07 A2972 RMK A01 T02200071  RH  038%=      5-min Rain = 0
KPD1 250231Z 11010KT 22/07 A2972 RMK A01 T02190072  RH  038%=      5-min Rain = 0
KPD1 250232Z 12008G14KT 22/07 A2972 RMK A01 T02190073  RH  039%=      5-min Rain = 0
KPD1 250233Z 12009KT 22/07 A2972 RMK A01 T02180074  RH  039%=      5-min Rain = 0
KPD1 250234Z 12007KT 22/08 A2972 RMK A01 T02170075  RH  040%=      5-min Rain = 0
KPD1 250235Z 11009KT 22/08 A2972 RMK A01 T02150075  RH  040%=      5-min Rain = 0
KPD1 250236Z 14005KT 22/08 A2972 RMK A01 T02150075  RH  040%=      5-min Rain = 0
KPD1 250237Z 13005KT 21/08 A2972 RMK A01 T02140075  RH  041%=      5-min Rain = 0
KPD1 250238Z 13005KT 21/08 A2972 RMK A01 T02130075  RH  041%=      5-min Rain = 0
KPD1 250239Z 17004KT 21/08 A2972 RMK A01 T02130075  RH  041%=      5-min Rain = 0
KPD1 250240Z 14005KT 21/08 A2972 RMK A01 T02130076  RH  041%=      5-min Rain = 0
KPD1 250241Z 12004KT 21/08 A2972 RMK A01 T02120076  RH  041%=      5-min Rain = 0
KPD1 250242Z 15004KT 21/08 A2972 RMK A01 T02110076  RH  042%=      5-min Rain = 0
KPD1 250243Z 15005KT 21/08 A2972 RMK A01 T02110076  RH  042%=      5-min Rain = 0
KPD1 250244Z 11004KT 21/08 A2972 RMK A01 T02100075  RH  042%=      5-min Rain = 0
KPD1 250245Z 15005KT 21/07 A2973 RMK A01 T02100074  RH  042%=      5-min Rain = 0
KPD1 250246Z 13008KT 21/08 A2973 RMK A01 T02100075  RH  042%=      5-min Rain = 0
KPD1 250247Z 12009KT 21/07 A2973 RMK A01 T02100074  RH  042%=      5-min Rain = 0
KPD1 250248Z 11009KT 21/07 A2973 RMK A01 T02100074  RH  041%=      5-min Rain = 0
KPD1 250249Z 11010KT 21/07 A2973 RMK A01 T02100074  RH  041%=      5-min Rain = 0
KPD1 250250Z 10011KT 21/07 A2973 RMK A01 T02100074  RH  041%=      5-min Rain = 0
KPD1 250251Z 10010KT 21/07 A2973 RMK A01 T02110074  RH  041%=      5-min Rain = 0
KPD1 250252Z 10008G13KT 21/07 A2973 RMK A01 T02110073  RH  041%=      5-min Rain = 0
KPD1 250253Z 13007KT 21/07 A2973 RMK A01 T02110073  RH  041%=      5-min Rain = 0
KPD1 250254Z 11005KT 21/07 A2973 RMK A01 T02110073  RH  041%=      5-min Rain = 0
KPD1 250255Z 12005KT 21/07 A2972 RMK A01 T02110073  RH  041%=      5-min Rain = 0
KPD1 250256Z 12004KT 21/07 A2972 RMK A01 T02110073  RH  041%=      5-min Rain = 0
KPD1 250257Z 13005KT 21/07 A2972 RMK A01 T02110071  RH  040%=      5-min Rain = 0
KPD1 250258Z 14007KT 21/07 A2971 RMK A01 T02110071  RH  040%=      5-min Rain = 0
KPD1 250259Z 16006KT 21/07 A2971 RMK A01 T02110072  RH  041%=      5-min Rain = 0
KPD1 250300Z 14003KT 21/07 A2971 RMK A01 T02110073  RH  041%=      5-min Rain = 0
KPD1 250301Z 10006KT 21/07 A2971 RMK A01 T02100072  RH  041%=      5-min Rain = 0
KPD1 250302Z 12004KT 21/07 A2971 RMK A01 T02100072  RH  041%=      5-min Rain = 0
KPD1 250303Z 11003KT 21/07 A2971 RMK A01 T02100074  RH  041%=      5-min Rain = 0
KPD1 250304Z 15003KT 21/07 A2971 RMK A01 T02090074  RH  042%=      5-min Rain = 0
KPD1 250305Z 16005KT 21/07 A2971 RMK A01 T02090074  RH  042%=      5-min Rain = 0
KPD1 250306Z 15004KT 21/07 A2971 RMK A01 T02080073  RH  042%=      5-min Rain = 0
KPD1 250307Z 15004KT 21/07 A2971 RMK A01 T02070073  RH  042%=      5-min Rain = 0
KPD1 250308Z 15005KT 21/07 A2972 RMK A01 T02070074  RH  042%=      5-min Rain = 0
KPD1 250309Z 14006KT 21/08 A2972 RMK A01 T02070075  RH  042%=      5-min Rain = 0
KPD1 250310Z 14006KT 21/08 A2973 RMK A01 T02060076  RH  043%=      5-min Rain = 0
KPD1 250311Z 14006KT 21/08 A2973 RMK A01 T02060077  RH  043%=      5-min Rain = 0
KPD1 250312Z 13007KT 21/08 A2973 RMK A01 T02050077  RH  043%=      5-min Rain = 0
KPD1 250313Z 14006KT 21/08 A2973 RMK A01 T02050077  RH  043%=      5-min Rain = 0
KPD1 250314Z 14007KT 21/08 A2973 RMK A01 T02050077  RH  043%=      5-min Rain = 0
KPD1 250315Z 14005KT 21/08 A2973 RMK A01 T02050077  RH  043%=      5-min Rain = 0
KPD1 250316Z 14005KT 21/08 A2973 RMK A01 T02050077  RH  044%=      5-min Rain = 0
KPD1 250317Z 14005KT 21/08 A2974 RMK A01 T02050077  RH  044%=      5-min Rain = 0
KPD1 250318Z 14007KT 21/08 A2974 RMK A01 T02050078  RH  044%=      5-min Rain = 0
KPD1 250319Z 14007KT 21/08 A2974 RMK A01 T02050078  RH  044%=      5-min Rain = 0
KPD1 250320Z 14007KT 20/08 A2974 RMK A01 T02040078  RH  044%=      5-min Rain = 0
KPD1 250321Z 15006KT 20/08 A2974 RMK A01 T02040079  RH  045%=      5-min Rain = 0
KPD1 250322Z 14006KT 20/08 A2974 RMK A01 T02030079  RH  045%=      5-min Rain = 0
KPD1 250323Z 13006KT 20/08 A2974 RMK A01 T02020079  RH  045%=      5-min Rain = 0
KPD1 250324Z 14006KT 20/08 A2974 RMK A01 T02020080  RH  045%=      5-min Rain = 0
KPD1 250325Z 15006KT 20/08 A2974 RMK A01 T02010081  RH  046%=      5-min Rain = 0
KPD1 250326Z 15007KT 20/08 A2975 RMK A01 T02000081  RH  046%=      5-min Rain = 0
KPD1 250327Z 14007KT 20/08 A2975 RMK A01 T02000081  RH  046%=      5-min Rain = 0
KPD1 250328Z 12006KT 20/08 A2975 RMK A01 T02000081  RH  046%=      5-min Rain = 0
KPD1 250329Z 13004KT 20/08 A2975 RMK A01 T02000081  RH  046%=      5-min Rain = 0
KPD1 250330Z 13004KT 20/08 A2974 RMK A01 T02000081  RH  046%=      5-min Rain = 0
KPD1 250331Z 14003KT 20/08 A2974 RMK A01 T01990080  RH  046%=      5-min Rain = 0
KPD1 250332Z 11003KT 20/08 A2974 RMK A01 T01990081  RH  046%=      5-min Rain = 0
KPD1 250333Z 13003KT 20/08 A2974 RMK A01 T01990080  RH  046%=      5-min Rain = 0
KPD1 250334Z 12003KT 20/08 A2974 RMK A01 T01990081  RH  046%=      5-min Rain = 0
KPD1 250335Z 13005KT 20/08 A2974 RMK A01 T01990081  RH  047%=      5-min Rain = 0
KPD1 250336Z 08003KT 20/08 A2974 RMK A01 T01980082  RH  047%=      5-min Rain = 0
KPD1 250337Z 09002KT 20/08 A2974 RMK A01 T01980081  RH  047%=      5-min Rain = 0
KPD1 250338Z 11002KT 20/08 A2974 RMK A01 T01980082  RH  047%=      5-min Rain = 0
KPD1 250339Z 12004KT 20/08 A2974 RMK A01 T01980082  RH  047%=      5-min Rain = 0
KPD1 250340Z 13004KT 20/08 A2974 RMK A01 T01980083  RH  047%=      5-min Rain = 0
KPD1 250341Z 14005KT 20/08 A2974 RMK A01 T01970084  RH  048%=      5-min Rain = 0
KPD1 250342Z 09007KT 20/09 A2974 RMK A01 T01970086  RH  049%=      5-min Rain = 0
KPD1 250343Z 12004KT 20/09 A2974 RMK A01 T01970088  RH  049%=      5-min Rain = 0
KPD1 250344Z 12005KT 20/09 A2974 RMK A01 T01970088  RH  049%=      5-min Rain = 0
KPD1 250345Z 12004KT 20/09 A2974 RMK A01 T01970086  RH  049%=      5-min Rain = 0
KPD1 250346Z 12005KT 20/09 A2974 RMK A01 T01970088  RH  049%=      5-min Rain = 0
KPD1 250347Z 11004KT 20/09 A2973 RMK A01 T01970090  RH  050%=      5-min Rain = 0
KPD1 250348Z 12004KT 20/09 A2973 RMK A01 T01970090  RH  050%=      5-min Rain = 0
KPD1 250349Z 12006KT 20/09 A2973 RMK A01 T01970090  RH  050%=      5-min Rain = 0
KPD1 250350Z 12004KT 20/09 A2973 RMK A01 T01970090  RH  050%=      5-min Rain = 0
KPD1 250351Z 10006KT 20/09 A2973 RMK A01 T01970089  RH  050%=      5-min Rain = 0
KPD1 250352Z 09003KT 20/09 A2973 RMK A01 T01970089  RH  050%=      5-min Rain = 0
KPD1 250353Z 10003KT 20/09 A2973 RMK A01 T01970090  RH  050%=      5-min Rain = 0
KPD1 250354Z 07004KT 20/09 A2973 RMK A01 T01970090  RH  050%=      5-min Rain = 0
KPD1 250355Z 07004KT 20/09 A2973 RMK A01 T01970090  RH  050%=      5-min Rain = 0
KPD1 250356Z 07003KT 20/09 A2973 RMK A01 T01960089  RH  050%=      5-min Rain = 0
KPD1 250357Z 10005KT 20/09 A2973 RMK A01 T01960089  RH  050%=      5-min Rain = 0
KPD1 250358Z 10006KT 20/09 A2973 RMK A01 T01960089  RH  050%=      5-min Rain = 0
KPD1 250359Z 12004KT 20/09 A2973 RMK A01 T01960090  RH  050%=      5-min Rain = 0
KPD1 250400Z 11005KT 20/09 A2974 RMK A01 T01960091  RH  051%=      5-min Rain = 0
KPD1 250401Z 10007G12KT 20/09 A2974 RMK A01 T01960092  RH  051%=      5-min Rain = 0
KPD1 250402Z 10010KT 20/09 A2974 RMK A01 T01960093  RH  052%=      5-min Rain = 0
KPD1 250403Z 08005KT 20/10 A2974 RMK A01 T01950095  RH  052%=      5-min Rain = 0
KPD1 250404Z 07005KT 20/10 A2974 RMK A01 T01950096  RH  053%=      5-min Rain = 0
KPD1 250405Z 08009KT 19/10 A2974 RMK A01 T01940097  RH  054%=      5-min Rain = 0
KPD1 250406Z 10008G14KT 19/10 A2974 RMK A01 T01930099  RH  054%=      5-min Rain = 0
KPD1 250407Z 08008KT 19/10 A2974 RMK A01 T01920100  RH  055%=      5-min Rain = 0
KPD1 250408Z 07009KT 19/10 A2974 RMK A01 T01900101  RH  056%=      5-min Rain = 0
KPD1 250409Z 09011G17KT 19/10 A2974 RMK A01 T01890101  RH  057%=      5-min Rain = 0
KPD1 250410Z 08008KT 19/10 A2974 RMK A01 T01870101  RH  057%=      5-min Rain = 0
KPD1 250411Z 10008KT 19/10 A2975 RMK A01 T01860101  RH  058%=      5-min Rain = 0
KPD1 250412Z 09007G13KT 19/10 A2975 RMK A01 T01850101  RH  058%=      5-min Rain = 0
KPD1 250413Z 09009KT 19/10 A2975 RMK A01 T01850100  RH  058%=      5-min Rain = 0
KPD1 250414Z 10009KT 18/10 A2975 RMK A01 T01840100  RH  058%=      5-min Rain = 0
KPD1 250415Z 10010KT 18/10 A2975 RMK A01 T01830099  RH  058%=      5-min Rain = 0
KPD1 250416Z 10009KT 18/10 A2975 RMK A01 T01830098  RH  058%=      5-min Rain = 0
KPD1 250417Z 10004KT 18/10 A2975 RMK A01 T01830097  RH  057%=      5-min Rain = 0
KPD1 250418Z 10008KT 18/10 A2975 RMK A01 T01820097  RH  058%=      5-min Rain = 0
KPD1 250419Z 09006KT 18/10 A2975 RMK A01 T01820097  RH  057%=      5-min Rain = 0
KPD1 250420Z 10008KT 18/10 A2975 RMK A01 T01820095  RH  057%=      5-min Rain = 0
KPD1 250421Z 11009KT 18/10 A2975 RMK A01 T01820095  RH  057%=      5-min Rain = 0
KPD1 250422Z 11006KT 18/09 A2976 RMK A01 T01820094  RH  056%=      5-min Rain = 0
KPD1 250423Z 10008G13KT 18/09 A2976 RMK A01 T01820093  RH  056%=      5-min Rain = 0
KPD1 250424Z 11008G14KT 18/09 A2976 RMK A01 T01820092  RH  056%=      5-min Rain = 0
KPD1 250425Z 10008KT 18/09 A2976 RMK A01 T01820091  RH  055%=      5-min Rain = 0
KPD1 250426Z 11006KT 18/09 A2976 RMK A01 T01820090  RH  055%=      5-min Rain = 0
KPD1 250427Z 12006KT 18/09 A2976 RMK A01 T01820090  RH  055%=      5-min Rain = 0
KPD1 250428Z 11007G12KT 18/09 A2976 RMK A01 T01820090  RH  055%=      5-min Rain = 0
KPD1 250429Z 10005KT 18/09 A2976 RMK A01 T01820089  RH  054%=      5-min Rain = 0
KPD1 250430Z 13005KT 18/09 A2976 RMK A01 T01820089  RH  054%=      5-min Rain = 0
KPD1 250431Z 14004KT 18/09 A2976 RMK A01 T01820089  RH  054%=      5-min Rain = 0
KPD1 250432Z 12003KT 18/09 A2976 RMK A01 T01820089  RH  055%=      5-min Rain = 0
KPD1 250433Z 13006KT 18/09 A2976 RMK A01 T01820090  RH  055%=      5-min Rain = 0
KPD1 250434Z 11007KT 18/09 A2976 RMK A01 T01820090  RH  055%=      5-min Rain = 0
KPD1 250435Z 11007KT 18/09 A2976 RMK A01 T01810090  RH  055%=      5-min Rain = 0
KPD1 250436Z 10008KT 18/09 A2976 RMK A01 T01810090  RH  055%=      5-min Rain = 0
KPD1 250437Z 10005KT 18/09 A2976 RMK A01 T01800090  RH  056%=      5-min Rain = 0
KPD1 250438Z 11006KT 18/09 A2976 RMK A01 T01800090  RH  056%=      5-min Rain = 0
KPD1 250439Z 09006KT 18/09 A2977 RMK A01 T01790091  RH  056%=      5-min Rain = 0
KPD1 250440Z 11005KT 18/09 A2976 RMK A01 T01790091  RH  056%=      5-min Rain = 0
KPD1 250441Z 10004KT 18/09 A2976 RMK A01 T01780092  RH  057%=      5-min Rain = 0
KPD1 250442Z 06004KT 18/09 A2976 RMK A01 T01780092  RH  057%=      5-min Rain = 0
KPD1 250443Z 07008KT 18/09 A2976 RMK A01 T01770094  RH  058%=      5-min Rain = 0
KPD1 250444Z 09005KT 18/10 A2976 RMK A01 T01760095  RH  059%=      5-min Rain = 0
KPD1 250445Z 08009KT 18/09 A2976 RMK A01 T01750094  RH  059%=      5-min Rain = 0
KPD1 250446Z 08010KT 18/10 A2976 RMK A01 T01750096  RH  060%=      5-min Rain = 0
KPD1 250447Z 10010KT 17/10 A2976 RMK A01 T01730096  RH  061%=      5-min Rain = 0
KPD1 250448Z 09010KT 17/10 A2976 RMK A01 T01720097  RH  061%=      5-min Rain = 0
KPD1 250449Z 09011KT 17/10 A2976 RMK A01 T01710098  RH  062%=      5-min Rain = 0
KPD1 250450Z 09011G16KT 17/10 A2977 RMK A01 T01690099  RH  063%=      5-min Rain = 0
KPD1 250451Z 08008G14KT 17/10 A2977 RMK A01 T01680099  RH  063%=      5-min Rain = 0
KPD1 250452Z 11011G17KT 17/10 A2976 RMK A01 T01680099  RH  064%=      5-min Rain = 0
KPD1 250453Z 10006KT 17/10 A2977 RMK A01 T01670099  RH  064%=      5-min Rain = 0
KPD1 250454Z 08007KT 17/10 A2977 RMK A01 T01660100  RH  065%=      5-min Rain = 0
KPD1 250455Z 07007G13KT 17/10 A2977 RMK A01 T01660100  RH  065%=      5-min Rain = 0
KPD1 250456Z 08007KT 17/10 A2977 RMK A01 T01650101  RH  066%=      5-min Rain = 0
KPD1 250457Z 08008KT 17/10 A2977 RMK A01 T01650102  RH  066%=      5-min Rain = 0
KPD1 250458Z 07009KT 16/10 A2978 RMK A01 T01640104  RH  067%=      5-min Rain = 0
KPD1 250459Z 08007KT 16/11 A2978 RMK A01 T01630105  RH  069%=      5-min Rain = 0

Page generated in 0.1379 seconds.